<?xml version='1.0' encoding='UTF-8'?>
<gpx version="1.1" creator="https://www.komoot.de" xmlns="http://www.topografix.com/GPX/1/1" xmlns:xsi="http://www.w3.org/2001/XMLSchema-instance" xsi:schemaLocation="http://www.topografix.com/GPX/1/1 http://www.topografix.com/GPX/1/1/gpx.xsd">
  <metadata>
    <name>Wanderung  PW-Villingen-7,0_KM_27.11.2022</name>
    <author>
      <link href="https://www.komoot.de">
        <text>komoot</text>
        <type>text/html</type>
      </link>
    </author>
  </metadata>
  <trk>
    <name>Wanderung  PW-Villingen-7,0_KM_27.11.2022</name>
    <trkseg>
      <trkpt lat="48.057664" lon="8.464910">
        <ele>756.064688</ele>
        <time>2022-11-27T12:24:36.834Z</time>
      </trkpt>
      <trkpt lat="48.057653" lon="8.464669">
        <ele>756.064688</ele>
        <time>2022-11-27T12:24:53.303Z</time>
      </trkpt>
      <trkpt lat="48.057690" lon="8.464536">
        <ele>756.064688</ele>
        <time>2022-11-27T12:25:30.285Z</time>
      </trkpt>
      <trkpt lat="48.057754" lon="8.464435">
        <ele>756.064688</ele>
        <time>2022-11-27T12:25:50.333Z</time>
      </trkpt>
      <trkpt lat="48.057730" lon="8.464295">
        <ele>756.064688</ele>
        <time>2022-11-27T12:26:10.300Z</time>
      </trkpt>
      <trkpt lat="48.057673" lon="8.464181">
        <ele>756.064688</ele>
        <time>2022-11-27T12:26:20.254Z</time>
      </trkpt>
      <trkpt lat="48.057695" lon="8.464048">
        <ele>756.064688</ele>
        <time>2022-11-27T12:26:35.281Z</time>
      </trkpt>
      <trkpt lat="48.057711" lon="8.463897">
        <ele>756.064688</ele>
        <time>2022-11-27T12:26:49.295Z</time>
      </trkpt>
      <trkpt lat="48.057711" lon="8.463739">
        <ele>756.064688</ele>
        <time>2022-11-27T12:26:58.283Z</time>
      </trkpt>
      <trkpt lat="48.057724" lon="8.463590">
        <ele>756.133997</ele>
        <time>2022-11-27T12:27:12.289Z</time>
      </trkpt>
      <trkpt lat="48.057740" lon="8.463449">
        <ele>756.288063</ele>
        <time>2022-11-27T12:27:24.293Z</time>
      </trkpt>
      <trkpt lat="48.057754" lon="8.463302">
        <ele>756.448018</ele>
        <time>2022-11-27T12:27:32.278Z</time>
      </trkpt>
      <trkpt lat="48.057763" lon="8.463164">
        <ele>756.597384</ele>
        <time>2022-11-27T12:27:40.285Z</time>
      </trkpt>
      <trkpt lat="48.057797" lon="8.463038">
        <ele>756.743762</ele>
        <time>2022-11-27T12:27:52.267Z</time>
      </trkpt>
      <trkpt lat="48.057840" lon="8.462904">
        <ele>756.903888</ele>
        <time>2022-11-27T12:28:02.283Z</time>
      </trkpt>
      <trkpt lat="48.057881" lon="8.462778">
        <ele>757.054852</ele>
        <time>2022-11-27T12:28:13.319Z</time>
      </trkpt>
      <trkpt lat="48.057938" lon="8.462659">
        <ele>757.212564</ele>
        <time>2022-11-27T12:28:25.279Z</time>
      </trkpt>
      <trkpt lat="48.058002" lon="8.462558">
        <ele>757.362490</ele>
        <time>2022-11-27T12:28:36.288Z</time>
      </trkpt>
      <trkpt lat="48.058088" lon="8.462509">
        <ele>757.510810</ele>
        <time>2022-11-27T12:28:42.284Z</time>
      </trkpt>
      <trkpt lat="48.058196" lon="8.462463">
        <ele>757.691792</ele>
        <time>2022-11-27T12:28:49.289Z</time>
      </trkpt>
      <trkpt lat="48.058293" lon="8.462493">
        <ele>757.851435</ele>
        <time>2022-11-27T12:28:56.286Z</time>
      </trkpt>
      <trkpt lat="48.058388" lon="8.462481">
        <ele>758.005094</ele>
        <time>2022-11-27T12:29:04.273Z</time>
      </trkpt>
      <trkpt lat="48.058473" lon="8.462431">
        <ele>758.152299</ele>
        <time>2022-11-27T12:29:11.287Z</time>
      </trkpt>
      <trkpt lat="48.058564" lon="8.462394">
        <ele>758.304285</ele>
        <time>2022-11-27T12:29:20.281Z</time>
      </trkpt>
      <trkpt lat="48.058655" lon="8.462407">
        <ele>758.451620</ele>
        <time>2022-11-27T12:29:33.288Z</time>
      </trkpt>
      <trkpt lat="48.058750" lon="8.462365">
        <ele>758.611279</ele>
        <time>2022-11-27T12:29:40.283Z</time>
      </trkpt>
      <trkpt lat="48.058833" lon="8.462430">
        <ele>758.762269</ele>
        <time>2022-11-27T12:29:58.308Z</time>
      </trkpt>
      <trkpt lat="48.058940" lon="8.462456">
        <ele>758.936984</ele>
        <time>2022-11-27T12:30:06.287Z</time>
      </trkpt>
      <trkpt lat="48.059029" lon="8.462525">
        <ele>758.916649</ele>
        <time>2022-11-27T12:30:13.296Z</time>
      </trkpt>
      <trkpt lat="48.059137" lon="8.462508">
        <ele>758.855730</ele>
        <time>2022-11-27T12:30:27.290Z</time>
      </trkpt>
      <trkpt lat="48.059211" lon="8.462601">
        <ele>758.801516</ele>
        <time>2022-11-27T12:30:32.292Z</time>
      </trkpt>
      <trkpt lat="48.059274" lon="8.462742">
        <ele>758.737925</ele>
        <time>2022-11-27T12:30:38.300Z</time>
      </trkpt>
      <trkpt lat="48.059372" lon="8.462765">
        <ele>758.682277</ele>
        <time>2022-11-27T12:30:52.275Z</time>
      </trkpt>
      <trkpt lat="48.059466" lon="8.462735">
        <ele>758.628359</ele>
        <time>2022-11-27T12:30:57.287Z</time>
      </trkpt>
      <trkpt lat="48.059569" lon="8.462660">
        <ele>758.564099</ele>
        <time>2022-11-27T12:31:01.268Z</time>
      </trkpt>
      <trkpt lat="48.059653" lon="8.462612">
        <ele>758.513657</ele>
        <time>2022-11-27T12:31:08.302Z</time>
      </trkpt>
      <trkpt lat="48.059740" lon="8.462545">
        <ele>758.458767</ele>
        <time>2022-11-27T12:31:15.313Z</time>
      </trkpt>
      <trkpt lat="48.059841" lon="8.462498">
        <ele>758.399431</ele>
        <time>2022-11-27T12:31:19.300Z</time>
      </trkpt>
      <trkpt lat="48.059939" lon="8.462475">
        <ele>758.343783</ele>
        <time>2022-11-27T12:31:25.289Z</time>
      </trkpt>
      <trkpt lat="48.060035" lon="8.462452">
        <ele>758.289243</ele>
        <time>2022-11-27T12:31:31.292Z</time>
      </trkpt>
      <trkpt lat="48.060128" lon="8.462465">
        <ele>758.236845</ele>
        <time>2022-11-27T12:31:44.291Z</time>
      </trkpt>
      <trkpt lat="48.060216" lon="8.462387">
        <ele>758.179467</ele>
        <time>2022-11-27T12:31:52.274Z</time>
      </trkpt>
      <trkpt lat="48.060312" lon="8.462340">
        <ele>758.122803</ele>
        <time>2022-11-27T12:32:03.307Z</time>
      </trkpt>
      <trkpt lat="48.060371" lon="8.462232">
        <ele>758.070506</ele>
        <time>2022-11-27T12:32:11.291Z</time>
      </trkpt>
      <trkpt lat="48.060449" lon="8.462135">
        <ele>758.013609</ele>
        <time>2022-11-27T12:32:20.303Z</time>
      </trkpt>
      <trkpt lat="48.060549" lon="8.462085">
        <ele>757.954618</ele>
        <time>2022-11-27T12:32:26.297Z</time>
      </trkpt>
      <trkpt lat="48.060629" lon="8.462002">
        <ele>757.955491</ele>
        <time>2022-11-27T12:32:34.280Z</time>
      </trkpt>
      <trkpt lat="48.060703" lon="8.461917">
        <ele>757.956327</ele>
        <time>2022-11-27T12:32:41.300Z</time>
      </trkpt>
      <trkpt lat="48.060749" lon="8.461792">
        <ele>757.957182</ele>
        <time>2022-11-27T12:32:50.293Z</time>
      </trkpt>
      <trkpt lat="48.060830" lon="8.461708">
        <ele>757.958066</ele>
        <time>2022-11-27T12:33:00.281Z</time>
      </trkpt>
      <trkpt lat="48.060914" lon="8.461631">
        <ele>757.958949</ele>
        <time>2022-11-27T12:33:07.275Z</time>
      </trkpt>
      <trkpt lat="48.061012" lon="8.461557">
        <ele>757.959933</ele>
        <time>2022-11-27T12:33:16.260Z</time>
      </trkpt>
      <trkpt lat="48.061098" lon="8.461495">
        <ele>757.960789</ele>
        <time>2022-11-27T12:33:25.281Z</time>
      </trkpt>
      <trkpt lat="48.061143" lon="8.461374">
        <ele>757.961619</ele>
        <time>2022-11-27T12:33:34.288Z</time>
      </trkpt>
      <trkpt lat="48.061200" lon="8.461248">
        <ele>757.962530</ele>
        <time>2022-11-27T12:33:42.283Z</time>
      </trkpt>
      <trkpt lat="48.061288" lon="8.461186">
        <ele>757.963402</ele>
        <time>2022-11-27T12:33:48.287Z</time>
      </trkpt>
      <trkpt lat="48.061375" lon="8.461125">
        <ele>757.964264</ele>
        <time>2022-11-27T12:33:54.288Z</time>
      </trkpt>
      <trkpt lat="48.061455" lon="8.461046">
        <ele>757.965123</ele>
        <time>2022-11-27T12:34:01.283Z</time>
      </trkpt>
      <trkpt lat="48.061535" lon="8.460951">
        <ele>757.966039</ele>
        <time>2022-11-27T12:34:12.300Z</time>
      </trkpt>
      <trkpt lat="48.061624" lon="8.460867">
        <ele>757.966982</ele>
        <time>2022-11-27T12:34:19.282Z</time>
      </trkpt>
      <trkpt lat="48.061694" lon="8.460761">
        <ele>757.967875</ele>
        <time>2022-11-27T12:34:27.290Z</time>
      </trkpt>
      <trkpt lat="48.061742" lon="8.460647">
        <ele>757.968682</ele>
        <time>2022-11-27T12:34:38.291Z</time>
      </trkpt>
      <trkpt lat="48.061788" lon="8.460523">
        <ele>757.969532</ele>
        <time>2022-11-27T12:34:46.296Z</time>
      </trkpt>
      <trkpt lat="48.061818" lon="8.460386">
        <ele>757.970396</ele>
        <time>2022-11-27T12:34:52.289Z</time>
      </trkpt>
      <trkpt lat="48.061834" lon="8.460217">
        <ele>757.948714</ele>
        <time>2022-11-27T12:35:00.276Z</time>
      </trkpt>
      <trkpt lat="48.061869" lon="8.460092">
        <ele>757.922318</ele>
        <time>2022-11-27T12:35:12.283Z</time>
      </trkpt>
      <trkpt lat="48.061895" lon="8.459934">
        <ele>757.890626</ele>
        <time>2022-11-27T12:35:20.288Z</time>
      </trkpt>
      <trkpt lat="48.061909" lon="8.459784">
        <ele>757.861127</ele>
        <time>2022-11-27T12:35:26.296Z</time>
      </trkpt>
      <trkpt lat="48.061923" lon="8.459627">
        <ele>757.830278</ele>
        <time>2022-11-27T12:35:37.291Z</time>
      </trkpt>
      <trkpt lat="48.061961" lon="8.459504">
        <ele>757.803886</ele>
        <time>2022-11-27T12:35:48.313Z</time>
      </trkpt>
      <trkpt lat="48.062125" lon="8.459483">
        <ele>757.755918</ele>
        <time>2022-11-27T12:36:08.299Z</time>
      </trkpt>
      <trkpt lat="48.062217" lon="8.459481">
        <ele>757.729105</ele>
        <time>2022-11-27T12:36:15.287Z</time>
      </trkpt>
      <trkpt lat="48.062310" lon="8.459470">
        <ele>757.701918</ele>
        <time>2022-11-27T12:36:23.272Z</time>
      </trkpt>
      <trkpt lat="48.062392" lon="8.459415">
        <ele>757.675730</ele>
        <time>2022-11-27T12:36:36.293Z</time>
      </trkpt>
      <trkpt lat="48.062494" lon="8.459389">
        <ele>757.645577</ele>
        <time>2022-11-27T12:36:43.276Z</time>
      </trkpt>
      <trkpt lat="48.062588" lon="8.459398">
        <ele>757.618127</ele>
        <time>2022-11-27T12:36:48.283Z</time>
      </trkpt>
      <trkpt lat="48.062682" lon="8.459442">
        <ele>757.589424</ele>
        <time>2022-11-27T12:36:52.301Z</time>
      </trkpt>
      <trkpt lat="48.062767" lon="8.459490">
        <ele>757.562948</ele>
        <time>2022-11-27T12:36:58.293Z</time>
      </trkpt>
      <trkpt lat="48.062868" lon="8.459469">
        <ele>757.533231</ele>
        <time>2022-11-27T12:37:08.285Z</time>
      </trkpt>
      <trkpt lat="48.062933" lon="8.459354">
        <ele>757.503897</ele>
        <time>2022-11-27T12:37:28.286Z</time>
      </trkpt>
      <trkpt lat="48.063027" lon="8.459306">
        <ele>757.474952</ele>
        <time>2022-11-27T12:37:35.283Z</time>
      </trkpt>
      <trkpt lat="48.063121" lon="8.459289">
        <ele>757.447359</ele>
        <time>2022-11-27T12:37:52.279Z</time>
      </trkpt>
      <trkpt lat="48.063213" lon="8.459321">
        <ele>757.451925</ele>
        <time>2022-11-27T12:38:02.277Z</time>
      </trkpt>
      <trkpt lat="48.063305" lon="8.459291">
        <ele>757.457415</ele>
        <time>2022-11-27T12:38:09.304Z</time>
      </trkpt>
      <trkpt lat="48.063395" lon="8.459325">
        <ele>757.462827</ele>
        <time>2022-11-27T12:38:12.282Z</time>
      </trkpt>
      <trkpt lat="48.063488" lon="8.459330">
        <ele>757.468253</ele>
        <time>2022-11-27T12:38:20.293Z</time>
      </trkpt>
      <trkpt lat="48.063582" lon="8.459288">
        <ele>757.473973</ele>
        <time>2022-11-27T12:38:35.290Z</time>
      </trkpt>
      <trkpt lat="48.063660" lon="8.459219">
        <ele>757.479256</ele>
        <time>2022-11-27T12:38:39.269Z</time>
      </trkpt>
      <trkpt lat="48.063750" lon="8.459164">
        <ele>757.484924</ele>
        <time>2022-11-27T12:38:47.281Z</time>
      </trkpt>
      <trkpt lat="48.063833" lon="8.459101">
        <ele>757.490350</ele>
        <time>2022-11-27T12:38:53.293Z</time>
      </trkpt>
      <trkpt lat="48.063901" lon="8.459009">
        <ele>757.495695</ele>
        <time>2022-11-27T12:39:00.293Z</time>
      </trkpt>
      <trkpt lat="48.063970" lon="8.458900">
        <ele>757.501545</ele>
        <time>2022-11-27T12:39:08.301Z</time>
      </trkpt>
      <trkpt lat="48.064034" lon="8.458804">
        <ele>757.506829</ele>
        <time>2022-11-27T12:39:15.291Z</time>
      </trkpt>
      <trkpt lat="48.064096" lon="8.458701">
        <ele>757.512230</ele>
        <time>2022-11-27T12:39:23.300Z</time>
      </trkpt>
      <trkpt lat="48.064144" lon="8.458570">
        <ele>757.518052</ele>
        <time>2022-11-27T12:39:33.278Z</time>
      </trkpt>
      <trkpt lat="48.064202" lon="8.458464">
        <ele>757.523390</ele>
        <time>2022-11-27T12:39:41.283Z</time>
      </trkpt>
      <trkpt lat="48.064253" lon="8.458322">
        <ele>757.529671</ele>
        <time>2022-11-27T12:39:48.274Z</time>
      </trkpt>
      <trkpt lat="48.064305" lon="8.458190">
        <ele>757.535641</ele>
        <time>2022-11-27T12:39:56.307Z</time>
      </trkpt>
      <trkpt lat="48.064380" lon="8.458073">
        <ele>757.541958</ele>
        <time>2022-11-27T12:40:02.278Z</time>
      </trkpt>
      <trkpt lat="48.064463" lon="8.458006">
        <ele>757.547457</ele>
        <time>2022-11-27T12:40:11.290Z</time>
      </trkpt>
      <trkpt lat="48.064539" lon="8.457926">
        <ele>757.549569</ele>
        <time>2022-11-27T12:40:26.289Z</time>
      </trkpt>
      <trkpt lat="48.064614" lon="8.457826">
        <ele>757.541895</ele>
        <time>2022-11-27T12:40:35.294Z</time>
      </trkpt>
      <trkpt lat="48.064670" lon="8.457711">
        <ele>757.534630</ele>
        <time>2022-11-27T12:40:41.279Z</time>
      </trkpt>
      <trkpt lat="48.064739" lon="8.457617">
        <ele>757.527501</ele>
        <time>2022-11-27T12:40:49.284Z</time>
      </trkpt>
      <trkpt lat="48.064798" lon="8.457507">
        <ele>757.520299</ele>
        <time>2022-11-27T12:40:56.280Z</time>
      </trkpt>
      <trkpt lat="48.064852" lon="8.457388">
        <ele>757.512955</ele>
        <time>2022-11-27T12:41:04.279Z</time>
      </trkpt>
      <trkpt lat="48.064898" lon="8.457270">
        <ele>757.505981</ele>
        <time>2022-11-27T12:41:13.277Z</time>
      </trkpt>
      <trkpt lat="48.064993" lon="8.457233">
        <ele>757.498481</ele>
        <time>2022-11-27T12:41:18.276Z</time>
      </trkpt>
      <trkpt lat="48.065093" lon="8.457166">
        <ele>757.490110</ele>
        <time>2022-11-27T12:41:23.305Z</time>
      </trkpt>
      <trkpt lat="48.065148" lon="8.457054">
        <ele>757.483014</ele>
        <time>2022-11-27T12:41:31.293Z</time>
      </trkpt>
      <trkpt lat="48.065199" lon="8.456928">
        <ele>757.475493</ele>
        <time>2022-11-27T12:41:41.292Z</time>
      </trkpt>
      <trkpt lat="48.065288" lon="8.456895">
        <ele>757.468488</ele>
        <time>2022-11-27T12:41:47.288Z</time>
      </trkpt>
      <trkpt lat="48.065342" lon="8.456775">
        <ele>757.461102</ele>
        <time>2022-11-27T12:41:57.279Z</time>
      </trkpt>
      <trkpt lat="48.065413" lon="8.456685">
        <ele>757.453993</ele>
        <time>2022-11-27T12:42:03.282Z</time>
      </trkpt>
      <trkpt lat="48.065474" lon="8.456564">
        <ele>757.446254</ele>
        <time>2022-11-27T12:42:06.283Z</time>
      </trkpt>
      <trkpt lat="48.065499" lon="8.456419">
        <ele>757.438609</ele>
        <time>2022-11-27T12:42:11.286Z</time>
      </trkpt>
      <trkpt lat="48.065502" lon="8.456274">
        <ele>757.431202</ele>
        <time>2022-11-27T12:42:18.275Z</time>
      </trkpt>
      <trkpt lat="48.065518" lon="8.456126">
        <ele>757.423548</ele>
        <time>2022-11-27T12:42:23.280Z</time>
      </trkpt>
      <trkpt lat="48.065547" lon="8.455961">
        <ele>757.414837</ele>
        <time>2022-11-27T12:42:30.290Z</time>
      </trkpt>
      <trkpt lat="48.065547" lon="8.455810">
        <ele>757.439050</ele>
        <time>2022-11-27T12:42:40.273Z</time>
      </trkpt>
      <trkpt lat="48.065578" lon="8.455669">
        <ele>757.466520</ele>
        <time>2022-11-27T12:42:46.289Z</time>
      </trkpt>
      <trkpt lat="48.065550" lon="8.455537">
        <ele>757.492150</ele>
        <time>2022-11-27T12:42:54.286Z</time>
      </trkpt>
      <trkpt lat="48.065577" lon="8.455398">
        <ele>757.518939</ele>
        <time>2022-11-27T12:43:06.290Z</time>
      </trkpt>
      <trkpt lat="48.065581" lon="8.455237">
        <ele>757.548755</ele>
        <time>2022-11-27T12:43:14.288Z</time>
      </trkpt>
      <trkpt lat="48.065556" lon="8.455099">
        <ele>757.575216</ele>
        <time>2022-11-27T12:43:21.281Z</time>
      </trkpt>
      <trkpt lat="48.065558" lon="8.454941">
        <ele>757.604462</ele>
        <time>2022-11-27T12:43:35.271Z</time>
      </trkpt>
      <trkpt lat="48.065575" lon="8.454807">
        <ele>757.629704</ele>
        <time>2022-11-27T12:43:41.295Z</time>
      </trkpt>
      <trkpt lat="48.065534" lon="8.454672">
        <ele>757.657147</ele>
        <time>2022-11-27T12:43:48.275Z</time>
      </trkpt>
      <trkpt lat="48.065543" lon="8.454536">
        <ele>757.682440</ele>
        <time>2022-11-27T12:43:55.277Z</time>
      </trkpt>
      <trkpt lat="48.065548" lon="8.454376">
        <ele>757.712083</ele>
        <time>2022-11-27T12:44:03.279Z</time>
      </trkpt>
      <trkpt lat="48.065553" lon="8.454218">
        <ele>757.741356</ele>
        <time>2022-11-27T12:44:09.290Z</time>
      </trkpt>
      <trkpt lat="48.065557" lon="8.454079">
        <ele>757.767104</ele>
        <time>2022-11-27T12:44:14.281Z</time>
      </trkpt>
      <trkpt lat="48.065597" lon="8.453958">
        <ele>757.792087</ele>
        <time>2022-11-27T12:44:21.297Z</time>
      </trkpt>
      <trkpt lat="48.065604" lon="8.453817">
        <ele>757.818254</ele>
        <time>2022-11-27T12:44:37.277Z</time>
      </trkpt>
      <trkpt lat="48.065591" lon="8.453644">
        <ele>757.850472</ele>
        <time>2022-11-27T12:44:44.271Z</time>
      </trkpt>
      <trkpt lat="48.065600" lon="8.453494">
        <ele>757.878344</ele>
        <time>2022-11-27T12:44:50.291Z</time>
      </trkpt>
      <trkpt lat="48.065575" lon="8.453356">
        <ele>757.904805</ele>
        <time>2022-11-27T12:44:54.282Z</time>
      </trkpt>
      <trkpt lat="48.065563" lon="8.453211">
        <ele>757.953354</ele>
        <time>2022-11-27T12:45:02.274Z</time>
      </trkpt>
      <trkpt lat="48.065544" lon="8.453056">
        <ele>758.014336</ele>
        <time>2022-11-27T12:45:11.270Z</time>
      </trkpt>
      <trkpt lat="48.065586" lon="8.452921">
        <ele>758.071961</ele>
        <time>2022-11-27T12:45:21.265Z</time>
      </trkpt>
      <trkpt lat="48.065559" lon="8.452776">
        <ele>758.130210</ele>
        <time>2022-11-27T12:45:31.282Z</time>
      </trkpt>
      <trkpt lat="48.065578" lon="8.452642">
        <ele>758.183219</ele>
        <time>2022-11-27T12:45:34.268Z</time>
      </trkpt>
      <trkpt lat="48.065579" lon="8.452493">
        <ele>758.240881</ele>
        <time>2022-11-27T12:45:41.266Z</time>
      </trkpt>
      <trkpt lat="48.065570" lon="8.452333">
        <ele>758.303016</ele>
        <time>2022-11-27T12:45:47.266Z</time>
      </trkpt>
      <trkpt lat="48.065563" lon="8.452188">
        <ele>758.359274</ele>
        <time>2022-11-27T12:45:51.280Z</time>
      </trkpt>
      <trkpt lat="48.065598" lon="8.452063">
        <ele>758.411720</ele>
        <time>2022-11-27T12:46:07.257Z</time>
      </trkpt>
      <trkpt lat="48.065603" lon="8.451913">
        <ele>758.469838</ele>
        <time>2022-11-27T12:46:13.271Z</time>
      </trkpt>
      <trkpt lat="48.065587" lon="8.451779">
        <ele>758.522514</ele>
        <time>2022-11-27T12:46:18.274Z</time>
      </trkpt>
      <trkpt lat="48.065587" lon="8.451636">
        <ele>758.577852</ele>
        <time>2022-11-27T12:46:25.272Z</time>
      </trkpt>
      <trkpt lat="48.065595" lon="8.451496">
        <ele>758.632226</ele>
        <time>2022-11-27T12:46:33.277Z</time>
      </trkpt>
      <trkpt lat="48.065596" lon="8.451337">
        <ele>758.693758</ele>
        <time>2022-11-27T12:46:42.290Z</time>
      </trkpt>
      <trkpt lat="48.065603" lon="8.451200">
        <ele>758.746928</ele>
        <time>2022-11-27T12:46:47.283Z</time>
      </trkpt>
      <trkpt lat="48.065592" lon="8.451063">
        <ele>758.800325</ele>
        <time>2022-11-27T12:46:58.285Z</time>
      </trkpt>
      <trkpt lat="48.065589" lon="8.450919">
        <ele>758.856076</ele>
        <time>2022-11-27T12:47:05.289Z</time>
      </trkpt>
      <trkpt lat="48.065587" lon="8.450762">
        <ele>758.916842</ele>
        <time>2022-11-27T12:47:12.280Z</time>
      </trkpt>
      <trkpt lat="48.065602" lon="8.450602">
        <ele>758.984804</ele>
        <time>2022-11-27T12:47:23.312Z</time>
      </trkpt>
      <trkpt lat="48.065658" lon="8.450493">
        <ele>759.049266</ele>
        <time>2022-11-27T12:47:34.304Z</time>
      </trkpt>
      <trkpt lat="48.065688" lon="8.450358">
        <ele>759.115969</ele>
        <time>2022-11-27T12:47:46.277Z</time>
      </trkpt>
      <trkpt lat="48.065675" lon="8.450193">
        <ele>759.193865</ele>
        <time>2022-11-27T12:47:52.276Z</time>
      </trkpt>
      <trkpt lat="48.065664" lon="8.450036">
        <ele>759.267879</ele>
        <time>2022-11-27T12:47:57.276Z</time>
      </trkpt>
      <trkpt lat="48.065663" lon="8.449890">
        <ele>759.336335</ele>
        <time>2022-11-27T12:48:04.269Z</time>
      </trkpt>
      <trkpt lat="48.065681" lon="8.449750">
        <ele>759.403178</ele>
        <time>2022-11-27T12:48:12.283Z</time>
      </trkpt>
      <trkpt lat="48.065704" lon="8.449605">
        <ele>759.473050</ele>
        <time>2022-11-27T12:48:21.261Z</time>
      </trkpt>
      <trkpt lat="48.065736" lon="8.449474">
        <ele>759.538445</ele>
        <time>2022-11-27T12:48:28.278Z</time>
      </trkpt>
      <trkpt lat="48.065738" lon="8.449319">
        <ele>759.611130</ele>
        <time>2022-11-27T12:48:36.283Z</time>
      </trkpt>
      <trkpt lat="48.065730" lon="8.449175">
        <ele>759.678878</ele>
        <time>2022-11-27T12:48:41.268Z</time>
      </trkpt>
      <trkpt lat="48.065744" lon="8.449041">
        <ele>759.742467</ele>
        <time>2022-11-27T12:48:46.279Z</time>
      </trkpt>
      <trkpt lat="48.065733" lon="8.448902">
        <ele>759.808093</ele>
        <time>2022-11-27T12:48:53.268Z</time>
      </trkpt>
      <trkpt lat="48.065767" lon="8.448766">
        <ele>759.876172</ele>
        <time>2022-11-27T12:49:01.277Z</time>
      </trkpt>
      <trkpt lat="48.065787" lon="8.448632">
        <ele>759.940546</ele>
        <time>2022-11-27T12:49:10.282Z</time>
      </trkpt>
      <trkpt lat="48.065836" lon="8.448506">
        <ele>760.008896</ele>
        <time>2022-11-27T12:49:17.270Z</time>
      </trkpt>
      <trkpt lat="48.065877" lon="8.448375">
        <ele>760.076718</ele>
        <time>2022-11-27T12:49:24.282Z</time>
      </trkpt>
      <trkpt lat="48.065921" lon="8.448243">
        <ele>760.145878</ele>
        <time>2022-11-27T12:49:32.255Z</time>
      </trkpt>
      <trkpt lat="48.066000" lon="8.448170">
        <ele>760.211019</ele>
        <time>2022-11-27T12:49:58.261Z</time>
      </trkpt>
      <trkpt lat="48.066101" lon="8.448190">
        <ele>760.307047</ele>
        <time>2022-11-27T12:50:20.269Z</time>
      </trkpt>
      <trkpt lat="48.066192" lon="8.448192">
        <ele>760.394314</ele>
        <time>2022-11-27T12:50:27.279Z</time>
      </trkpt>
      <trkpt lat="48.066286" lon="8.448222">
        <ele>760.486476</ele>
        <time>2022-11-27T12:50:33.294Z</time>
      </trkpt>
      <trkpt lat="48.066376" lon="8.448171">
        <ele>760.578755</ele>
        <time>2022-11-27T12:51:05.290Z</time>
      </trkpt>
      <trkpt lat="48.066392" lon="8.448029">
        <ele>760.671031</ele>
        <time>2022-11-27T12:51:13.279Z</time>
      </trkpt>
      <trkpt lat="48.066318" lon="8.447942">
        <ele>760.761269</ele>
        <time>2022-11-27T12:51:21.276Z</time>
      </trkpt>
      <trkpt lat="48.066222" lon="8.447918">
        <ele>760.854597</ele>
        <time>2022-11-27T12:51:29.287Z</time>
      </trkpt>
      <trkpt lat="48.066314" lon="8.447875">
        <ele>760.947016</ele>
        <time>2022-11-27T12:51:57.304Z</time>
      </trkpt>
      <trkpt lat="48.066353" lon="8.447736">
        <ele>761.043618</ele>
        <time>2022-11-27T12:52:04.277Z</time>
      </trkpt>
      <trkpt lat="48.066394" lon="8.447588">
        <ele>761.146280</ele>
        <time>2022-11-27T12:52:13.306Z</time>
      </trkpt>
      <trkpt lat="48.066436" lon="8.447453">
        <ele>761.241702</ele>
        <time>2022-11-27T12:52:21.268Z</time>
      </trkpt>
      <trkpt lat="48.066463" lon="8.447307">
        <ele>761.338773</ele>
        <time>2022-11-27T12:52:28.274Z</time>
      </trkpt>
      <trkpt lat="48.066486" lon="8.447171">
        <ele>761.428667</ele>
        <time>2022-11-27T12:52:38.284Z</time>
      </trkpt>
      <trkpt lat="48.066534" lon="8.447043">
        <ele>761.522719</ele>
        <time>2022-11-27T12:52:48.292Z</time>
      </trkpt>
      <trkpt lat="48.066588" lon="8.446930">
        <ele>761.611736</ele>
        <time>2022-11-27T12:52:57.280Z</time>
      </trkpt>
      <trkpt lat="48.066620" lon="8.446795">
        <ele>761.703523</ele>
        <time>2022-11-27T12:53:06.276Z</time>
      </trkpt>
      <trkpt lat="48.066658" lon="8.446665">
        <ele>761.794445</ele>
        <time>2022-11-27T12:53:14.283Z</time>
      </trkpt>
      <trkpt lat="48.066669" lon="8.446531">
        <ele>761.880956</ele>
        <time>2022-11-27T12:53:22.286Z</time>
      </trkpt>
      <trkpt lat="48.066694" lon="8.446401">
        <ele>761.957428</ele>
        <time>2022-11-27T12:53:28.286Z</time>
      </trkpt>
      <trkpt lat="48.066710" lon="8.446249">
        <ele>762.019300</ele>
        <time>2022-11-27T12:53:38.283Z</time>
      </trkpt>
      <trkpt lat="48.066714" lon="8.446097">
        <ele>762.080466</ele>
        <time>2022-11-27T12:53:45.298Z</time>
      </trkpt>
      <trkpt lat="48.066719" lon="8.445950">
        <ele>762.139650</ele>
        <time>2022-11-27T12:53:51.280Z</time>
      </trkpt>
      <trkpt lat="48.066757" lon="8.445809">
        <ele>762.200782</ele>
        <time>2022-11-27T12:53:58.289Z</time>
      </trkpt>
      <trkpt lat="48.066787" lon="8.445668">
        <ele>762.260281</ele>
        <time>2022-11-27T12:54:08.281Z</time>
      </trkpt>
      <trkpt lat="48.066784" lon="8.445526">
        <ele>762.317407</ele>
        <time>2022-11-27T12:54:11.273Z</time>
      </trkpt>
      <trkpt lat="48.066765" lon="8.445388">
        <ele>762.374061</ele>
        <time>2022-11-27T12:54:17.289Z</time>
      </trkpt>
      <trkpt lat="48.066784" lon="8.445249">
        <ele>762.431109</ele>
        <time>2022-11-27T12:54:29.277Z</time>
      </trkpt>
      <trkpt lat="48.066777" lon="8.445104">
        <ele>762.489564</ele>
        <time>2022-11-27T12:54:37.283Z</time>
      </trkpt>
      <trkpt lat="48.066789" lon="8.444969">
        <ele>762.544325</ele>
        <time>2022-11-27T12:54:44.285Z</time>
      </trkpt>
      <trkpt lat="48.066805" lon="8.444819">
        <ele>762.605402</ele>
        <time>2022-11-27T12:54:51.277Z</time>
      </trkpt>
      <trkpt lat="48.066795" lon="8.444685">
        <ele>762.659617</ele>
        <time>2022-11-27T12:54:59.280Z</time>
      </trkpt>
      <trkpt lat="48.066802" lon="8.444530">
        <ele>762.722084</ele>
        <time>2022-11-27T12:55:06.282Z</time>
      </trkpt>
      <trkpt lat="48.066781" lon="8.444394">
        <ele>762.778209</ele>
        <time>2022-11-27T12:55:14.289Z</time>
      </trkpt>
      <trkpt lat="48.066796" lon="8.444253">
        <ele>762.835618</ele>
        <time>2022-11-27T12:55:25.288Z</time>
      </trkpt>
      <trkpt lat="48.066795" lon="8.444098">
        <ele>762.897945</ele>
        <time>2022-11-27T12:55:30.283Z</time>
      </trkpt>
      <trkpt lat="48.066789" lon="8.443958">
        <ele>762.954354</ele>
        <time>2022-11-27T12:55:39.292Z</time>
      </trkpt>
      <trkpt lat="48.066794" lon="8.443823">
        <ele>763.008720</ele>
        <time>2022-11-27T12:55:46.295Z</time>
      </trkpt>
      <trkpt lat="48.066789" lon="8.443676">
        <ele>763.305041</ele>
        <time>2022-11-27T12:55:52.283Z</time>
      </trkpt>
      <trkpt lat="48.066757" lon="8.443541">
        <ele>763.663232</ele>
        <time>2022-11-27T12:56:04.294Z</time>
      </trkpt>
      <trkpt lat="48.066737" lon="8.443386">
        <ele>764.057988</ele>
        <time>2022-11-27T12:56:20.289Z</time>
      </trkpt>
      <trkpt lat="48.066745" lon="8.443240">
        <ele>764.424304</ele>
        <time>2022-11-27T12:56:26.273Z</time>
      </trkpt>
      <trkpt lat="48.066744" lon="8.443101">
        <ele>764.771911</ele>
        <time>2022-11-27T12:56:34.280Z</time>
      </trkpt>
      <trkpt lat="48.066753" lon="8.442952">
        <ele>765.146023</ele>
        <time>2022-11-27T12:56:45.290Z</time>
      </trkpt>
      <trkpt lat="48.066762" lon="8.442816">
        <ele>765.487771</ele>
        <time>2022-11-27T12:56:52.260Z</time>
      </trkpt>
      <trkpt lat="48.066761" lon="8.442669">
        <ele>765.855382</ele>
        <time>2022-11-27T12:57:01.275Z</time>
      </trkpt>
      <trkpt lat="48.066772" lon="8.442154">
        <ele>767.143860</ele>
        <time>2022-11-27T12:57:22.298Z</time>
      </trkpt>
      <trkpt lat="48.066787" lon="8.442017">
        <ele>767.491013</ele>
        <time>2022-11-27T12:57:35.291Z</time>
      </trkpt>
      <trkpt lat="48.066753" lon="8.441890">
        <ele>767.833129</ele>
        <time>2022-11-27T12:57:43.285Z</time>
      </trkpt>
      <trkpt lat="48.066708" lon="8.441765">
        <ele>768.188178</ele>
        <time>2022-11-27T12:57:52.291Z</time>
      </trkpt>
      <trkpt lat="48.066688" lon="8.441613">
        <ele>768.575571</ele>
        <time>2022-11-27T12:57:59.286Z</time>
      </trkpt>
      <trkpt lat="48.066682" lon="8.441463">
        <ele>768.951336</ele>
        <time>2022-11-27T12:58:06.241Z</time>
      </trkpt>
      <trkpt lat="48.066632" lon="8.441297">
        <ele>769.406658</ele>
        <time>2022-11-27T12:58:37.245Z</time>
      </trkpt>
      <trkpt lat="48.066613" lon="8.441157">
        <ele>769.758406</ele>
        <time>2022-11-27T12:58:43.250Z</time>
      </trkpt>
      <trkpt lat="48.066609" lon="8.441016">
        <ele>769.934664</ele>
        <time>2022-11-27T12:58:50.283Z</time>
      </trkpt>
      <trkpt lat="48.066604" lon="8.440857">
        <ele>770.133465</ele>
        <time>2022-11-27T12:58:56.268Z</time>
      </trkpt>
      <trkpt lat="48.066581" lon="8.440714">
        <ele>770.317163</ele>
        <time>2022-11-27T12:59:02.278Z</time>
      </trkpt>
      <trkpt lat="48.066561" lon="8.440581">
        <ele>770.487425</ele>
        <time>2022-11-27T12:59:08.287Z</time>
      </trkpt>
      <trkpt lat="48.066525" lon="8.440453">
        <ele>770.660871</ele>
        <time>2022-11-27T12:59:16.274Z</time>
      </trkpt>
      <trkpt lat="48.066435" lon="8.440437">
        <ele>770.830257</ele>
        <time>2022-11-27T13:00:11.281Z</time>
      </trkpt>
      <trkpt lat="48.066347" lon="8.440470">
        <ele>770.999807</ele>
        <time>2022-11-27T13:00:16.277Z</time>
      </trkpt>
      <trkpt lat="48.066286" lon="8.440366">
        <ele>771.172632</ele>
        <time>2022-11-27T13:01:30.296Z</time>
      </trkpt>
      <trkpt lat="48.066196" lon="8.440391">
        <ele>771.343709</ele>
        <time>2022-11-27T13:01:38.284Z</time>
      </trkpt>
      <trkpt lat="48.066132" lon="8.440487">
        <ele>771.513068</ele>
        <time>2022-11-27T13:01:44.240Z</time>
      </trkpt>
      <trkpt lat="48.066067" lon="8.440602">
        <ele>771.701181</ele>
        <time>2022-11-27T13:01:51.312Z</time>
      </trkpt>
      <trkpt lat="48.066012" lon="8.440716">
        <ele>771.876789</ele>
        <time>2022-11-27T13:01:57.282Z</time>
      </trkpt>
      <trkpt lat="48.065925" lon="8.440755">
        <ele>772.046524</ele>
        <time>2022-11-27T13:02:34.312Z</time>
      </trkpt>
      <trkpt lat="48.065836" lon="8.440840">
        <ele>772.243850</ele>
        <time>2022-11-27T13:02:38.287Z</time>
      </trkpt>
      <trkpt lat="48.065736" lon="8.440848">
        <ele>772.431009</ele>
        <time>2022-11-27T13:02:51.284Z</time>
      </trkpt>
      <trkpt lat="48.065643" lon="8.440820">
        <ele>772.608301</ele>
        <time>2022-11-27T13:03:03.283Z</time>
      </trkpt>
      <trkpt lat="48.065553" lon="8.440779">
        <ele>772.784126</ele>
        <time>2022-11-27T13:03:15.277Z</time>
      </trkpt>
      <trkpt lat="48.065468" lon="8.440714">
        <ele>772.962526</ele>
        <time>2022-11-27T13:03:25.284Z</time>
      </trkpt>
      <trkpt lat="48.065394" lon="8.440613">
        <ele>773.160451</ele>
        <time>2022-11-27T13:03:33.300Z</time>
      </trkpt>
      <trkpt lat="48.065289" lon="8.440593">
        <ele>773.418501</ele>
        <time>2022-11-27T13:03:49.276Z</time>
      </trkpt>
      <trkpt lat="48.065202" lon="8.440638">
        <ele>773.642915</ele>
        <time>2022-11-27T13:03:58.280Z</time>
      </trkpt>
      <trkpt lat="48.065106" lon="8.440683">
        <ele>773.888173</ele>
        <time>2022-11-27T13:04:06.287Z</time>
      </trkpt>
      <trkpt lat="48.065009" lon="8.440680">
        <ele>774.124704</ele>
        <time>2022-11-27T13:04:11.277Z</time>
      </trkpt>
      <trkpt lat="48.064921" lon="8.440744">
        <ele>774.363240</ele>
        <time>2022-11-27T13:04:18.279Z</time>
      </trkpt>
      <trkpt lat="48.064835" lon="8.440818">
        <ele>774.605096</ele>
        <time>2022-11-27T13:04:28.279Z</time>
      </trkpt>
      <trkpt lat="48.064749" lon="8.440873">
        <ele>774.833105</ele>
        <time>2022-11-27T13:04:38.280Z</time>
      </trkpt>
      <trkpt lat="48.064650" lon="8.440922">
        <ele>775.087322</ele>
        <time>2022-11-27T13:04:48.290Z</time>
      </trkpt>
      <trkpt lat="48.064584" lon="8.441017">
        <ele>775.310586</ele>
        <time>2022-11-27T13:05:01.281Z</time>
      </trkpt>
      <trkpt lat="48.064507" lon="8.441126">
        <ele>775.569000</ele>
        <time>2022-11-27T13:05:10.282Z</time>
      </trkpt>
      <trkpt lat="48.064374" lon="8.441116">
        <ele>775.893655</ele>
        <time>2022-11-27T13:06:01.292Z</time>
      </trkpt>
      <trkpt lat="48.064296" lon="8.441025">
        <ele>776.134783</ele>
        <time>2022-11-27T13:06:08.298Z</time>
      </trkpt>
      <trkpt lat="48.064230" lon="8.440926">
        <ele>776.362614</ele>
        <time>2022-11-27T13:06:15.282Z</time>
      </trkpt>
      <trkpt lat="48.064132" lon="8.440906">
        <ele>776.603744</ele>
        <time>2022-11-27T13:06:25.283Z</time>
      </trkpt>
      <trkpt lat="48.064033" lon="8.440858">
        <ele>776.857455</ele>
        <time>2022-11-27T13:06:35.288Z</time>
      </trkpt>
      <trkpt lat="48.063957" lon="8.440784">
        <ele>777.078512</ele>
        <time>2022-11-27T13:06:41.291Z</time>
      </trkpt>
      <trkpt lat="48.063873" lon="8.440706">
        <ele>777.319527</ele>
        <time>2022-11-27T13:06:46.294Z</time>
      </trkpt>
      <trkpt lat="48.063800" lon="8.440624">
        <ele>777.561104</ele>
        <time>2022-11-27T13:06:51.284Z</time>
      </trkpt>
      <trkpt lat="48.063723" lon="8.440539">
        <ele>777.898602</ele>
        <time>2022-11-27T13:06:59.286Z</time>
      </trkpt>
      <trkpt lat="48.063654" lon="8.440443">
        <ele>778.230922</ele>
        <time>2022-11-27T13:07:04.292Z</time>
      </trkpt>
      <trkpt lat="48.063575" lon="8.440352">
        <ele>778.582566</ele>
        <time>2022-11-27T13:07:11.275Z</time>
      </trkpt>
      <trkpt lat="48.063501" lon="8.440263">
        <ele>778.917434</ele>
        <time>2022-11-27T13:07:19.289Z</time>
      </trkpt>
      <trkpt lat="48.063422" lon="8.440159">
        <ele>779.288566</ele>
        <time>2022-11-27T13:07:29.295Z</time>
      </trkpt>
      <trkpt lat="48.063351" lon="8.440068">
        <ele>779.618302</ele>
        <time>2022-11-27T13:07:36.287Z</time>
      </trkpt>
      <trkpt lat="48.063276" lon="8.439965">
        <ele>779.977365</ele>
        <time>2022-11-27T13:07:42.295Z</time>
      </trkpt>
      <trkpt lat="48.063214" lon="8.439858">
        <ele>780.311186</ele>
        <time>2022-11-27T13:07:49.288Z</time>
      </trkpt>
      <trkpt lat="48.063153" lon="8.439745">
        <ele>780.653592</ele>
        <time>2022-11-27T13:07:57.285Z</time>
      </trkpt>
      <trkpt lat="48.063090" lon="8.439632">
        <ele>781.000474</ele>
        <time>2022-11-27T13:08:04.296Z</time>
      </trkpt>
      <trkpt lat="48.063033" lon="8.439526">
        <ele>781.321179</ele>
        <time>2022-11-27T13:08:13.288Z</time>
      </trkpt>
      <trkpt lat="48.062991" lon="8.439408">
        <ele>781.636319</ele>
        <time>2022-11-27T13:08:20.283Z</time>
      </trkpt>
      <trkpt lat="48.062933" lon="8.439287">
        <ele>781.987322</ele>
        <time>2022-11-27T13:08:28.278Z</time>
      </trkpt>
      <trkpt lat="48.062895" lon="8.439144">
        <ele>782.350074</ele>
        <time>2022-11-27T13:08:34.290Z</time>
      </trkpt>
      <trkpt lat="48.062844" lon="8.439014">
        <ele>782.705409</ele>
        <time>2022-11-27T13:08:41.291Z</time>
      </trkpt>
      <trkpt lat="48.062780" lon="8.438904">
        <ele>783.049197</ele>
        <time>2022-11-27T13:08:47.287Z</time>
      </trkpt>
      <trkpt lat="48.062736" lon="8.438766">
        <ele>783.409618</ele>
        <time>2022-11-27T13:08:54.274Z</time>
      </trkpt>
      <trkpt lat="48.062710" lon="8.438636">
        <ele>783.729486</ele>
        <time>2022-11-27T13:09:01.275Z</time>
      </trkpt>
      <trkpt lat="48.062696" lon="8.438486">
        <ele>784.013458</ele>
        <time>2022-11-27T13:09:10.278Z</time>
      </trkpt>
      <trkpt lat="48.062615" lon="8.438419">
        <ele>784.241790</ele>
        <time>2022-11-27T13:09:26.293Z</time>
      </trkpt>
      <trkpt lat="48.062529" lon="8.438479">
        <ele>784.475885</ele>
        <time>2022-11-27T13:11:16.283Z</time>
      </trkpt>
      <trkpt lat="48.062447" lon="8.438541">
        <ele>784.702543</ele>
        <time>2022-11-27T13:11:20.268Z</time>
      </trkpt>
      <trkpt lat="48.062550" lon="8.438479">
        <ele>784.976440</ele>
        <time>2022-11-27T13:11:21.284Z</time>
      </trkpt>
      <trkpt lat="48.062454" lon="8.438504">
        <ele>785.216836</ele>
        <time>2022-11-27T13:11:29.292Z</time>
      </trkpt>
      <trkpt lat="48.062361" lon="8.438503">
        <ele>785.446277</ele>
        <time>2022-11-27T13:11:36.292Z</time>
      </trkpt>
      <trkpt lat="48.062276" lon="8.438461">
        <ele>785.667113</ele>
        <time>2022-11-27T13:11:42.292Z</time>
      </trkpt>
      <trkpt lat="48.062188" lon="8.438415">
        <ele>785.897080</ele>
        <time>2022-11-27T13:11:51.281Z</time>
      </trkpt>
      <trkpt lat="48.062109" lon="8.438346">
        <ele>786.122751</ele>
        <time>2022-11-27T13:12:00.265Z</time>
      </trkpt>
      <trkpt lat="48.062034" lon="8.438254">
        <ele>786.362009</ele>
        <time>2022-11-27T13:12:10.280Z</time>
      </trkpt>
      <trkpt lat="48.062014" lon="8.438115">
        <ele>786.596442</ele>
        <time>2022-11-27T13:12:18.301Z</time>
      </trkpt>
      <trkpt lat="48.062055" lon="8.438244">
        <ele>786.831962</ele>
        <time>2022-11-27T13:12:48.293Z</time>
      </trkpt>
      <trkpt lat="48.062029" lon="8.438111">
        <ele>787.060439</ele>
        <time>2022-11-27T13:14:12.291Z</time>
      </trkpt>
      <trkpt lat="48.062080" lon="8.437996">
        <ele>787.287997</ele>
        <time>2022-11-27T13:14:22.281Z</time>
      </trkpt>
      <trkpt lat="48.062102" lon="8.437858">
        <ele>787.521913</ele>
        <time>2022-11-27T13:14:31.276Z</time>
      </trkpt>
      <trkpt lat="48.062071" lon="8.437718">
        <ele>787.765082</ele>
        <time>2022-11-27T13:14:44.284Z</time>
      </trkpt>
      <trkpt lat="48.062022" lon="8.437592">
        <ele>788.005441</ele>
        <time>2022-11-27T13:14:52.279Z</time>
      </trkpt>
      <trkpt lat="48.061968" lon="8.437478">
        <ele>788.235826</ele>
        <time>2022-11-27T13:14:59.280Z</time>
      </trkpt>
      <trkpt lat="48.061895" lon="8.437383">
        <ele>788.358758</ele>
        <time>2022-11-27T13:15:09.288Z</time>
      </trkpt>
      <trkpt lat="48.061830" lon="8.437276">
        <ele>788.454710</ele>
        <time>2022-11-27T13:15:17.280Z</time>
      </trkpt>
      <trkpt lat="48.061787" lon="8.437149">
        <ele>788.549183</ele>
        <time>2022-11-27T13:15:23.282Z</time>
      </trkpt>
      <trkpt lat="48.061732" lon="8.437019">
        <ele>788.651281</ele>
        <time>2022-11-27T13:15:35.286Z</time>
      </trkpt>
      <trkpt lat="48.061667" lon="8.436923">
        <ele>788.741964</ele>
        <time>2022-11-27T13:15:44.281Z</time>
      </trkpt>
      <trkpt lat="48.061592" lon="8.436841">
        <ele>788.834194</ele>
        <time>2022-11-27T13:15:55.291Z</time>
      </trkpt>
      <trkpt lat="48.061540" lon="8.436721">
        <ele>788.929098</ele>
        <time>2022-11-27T13:16:00.285Z</time>
      </trkpt>
      <trkpt lat="48.061489" lon="8.436595">
        <ele>789.026849</ele>
        <time>2022-11-27T13:16:05.285Z</time>
      </trkpt>
      <trkpt lat="48.061432" lon="8.436478">
        <ele>789.122927</ele>
        <time>2022-11-27T13:16:12.295Z</time>
      </trkpt>
      <trkpt lat="48.061379" lon="8.436361">
        <ele>789.216721</ele>
        <time>2022-11-27T13:16:20.279Z</time>
      </trkpt>
      <trkpt lat="48.061308" lon="8.436257">
        <ele>789.315374</ele>
        <time>2022-11-27T13:16:27.276Z</time>
      </trkpt>
      <trkpt lat="48.061242" lon="8.436160">
        <ele>789.407231</ele>
        <time>2022-11-27T13:16:35.302Z</time>
      </trkpt>
      <trkpt lat="48.061168" lon="8.436052">
        <ele>789.509871</ele>
        <time>2022-11-27T13:16:44.289Z</time>
      </trkpt>
      <trkpt lat="48.061110" lon="8.435940">
        <ele>789.603893</ele>
        <time>2022-11-27T13:16:47.274Z</time>
      </trkpt>
      <trkpt lat="48.061038" lon="8.435842">
        <ele>789.700536</ele>
        <time>2022-11-27T13:16:57.303Z</time>
      </trkpt>
      <trkpt lat="48.060967" lon="8.435749">
        <ele>789.794229</ele>
        <time>2022-11-27T13:17:09.282Z</time>
      </trkpt>
      <trkpt lat="48.060889" lon="8.435642">
        <ele>789.899299</ele>
        <time>2022-11-27T13:17:15.288Z</time>
      </trkpt>
      <trkpt lat="48.060806" lon="8.435546">
        <ele>790.003461</ele>
        <time>2022-11-27T13:17:23.290Z</time>
      </trkpt>
      <trkpt lat="48.060726" lon="8.435455">
        <ele>790.102449</ele>
        <time>2022-11-27T13:17:30.288Z</time>
      </trkpt>
      <trkpt lat="48.060643" lon="8.435390">
        <ele>790.193450</ele>
        <time>2022-11-27T13:17:38.280Z</time>
      </trkpt>
      <trkpt lat="48.060555" lon="8.435315">
        <ele>790.291826</ele>
        <time>2022-11-27T13:17:45.282Z</time>
      </trkpt>
      <trkpt lat="48.060480" lon="8.435222">
        <ele>790.386447</ele>
        <time>2022-11-27T13:17:53.272Z</time>
      </trkpt>
      <trkpt lat="48.060401" lon="8.435155">
        <ele>790.474657</ele>
        <time>2022-11-27T13:18:01.296Z</time>
      </trkpt>
      <trkpt lat="48.060324" lon="8.435067">
        <ele>790.568777</ele>
        <time>2022-11-27T13:18:10.291Z</time>
      </trkpt>
      <trkpt lat="48.060249" lon="8.434967">
        <ele>790.666360</ele>
        <time>2022-11-27T13:18:18.292Z</time>
      </trkpt>
      <trkpt lat="48.060169" lon="8.434883">
        <ele>790.761297</ele>
        <time>2022-11-27T13:18:26.290Z</time>
      </trkpt>
      <trkpt lat="48.060100" lon="8.434791">
        <ele>790.851074</ele>
        <time>2022-11-27T13:18:33.285Z</time>
      </trkpt>
      <trkpt lat="48.060040" lon="8.434683">
        <ele>790.942251</ele>
        <time>2022-11-27T13:18:41.277Z</time>
      </trkpt>
      <trkpt lat="48.059953" lon="8.434616">
        <ele>791.037298</ele>
        <time>2022-11-27T13:18:51.282Z</time>
      </trkpt>
      <trkpt lat="48.059873" lon="8.434512">
        <ele>791.140244</ele>
        <time>2022-11-27T13:18:58.294Z</time>
      </trkpt>
      <trkpt lat="48.059794" lon="8.434439">
        <ele>791.230439</ele>
        <time>2022-11-27T13:19:03.288Z</time>
      </trkpt>
      <trkpt lat="48.059718" lon="8.434339">
        <ele>791.328750</ele>
        <time>2022-11-27T13:19:12.281Z</time>
      </trkpt>
      <trkpt lat="48.059630" lon="8.434268">
        <ele>791.425868</ele>
        <time>2022-11-27T13:19:20.287Z</time>
      </trkpt>
      <trkpt lat="48.059560" lon="8.434159">
        <ele>791.524008</ele>
        <time>2022-11-27T13:19:31.294Z</time>
      </trkpt>
      <trkpt lat="48.059500" lon="8.434055">
        <ele>791.613203</ele>
        <time>2022-11-27T13:19:38.289Z</time>
      </trkpt>
      <trkpt lat="48.059434" lon="8.433926">
        <ele>791.718676</ele>
        <time>2022-11-27T13:19:44.281Z</time>
      </trkpt>
      <trkpt lat="48.059383" lon="8.433794">
        <ele>791.817643</ele>
        <time>2022-11-27T13:19:57.278Z</time>
      </trkpt>
      <trkpt lat="48.059352" lon="8.433659">
        <ele>791.909831</ele>
        <time>2022-11-27T13:20:05.265Z</time>
      </trkpt>
      <trkpt lat="48.059314" lon="8.433528">
        <ele>792.002057</ele>
        <time>2022-11-27T13:20:12.290Z</time>
      </trkpt>
      <trkpt lat="48.059290" lon="8.433376">
        <ele>792.102923</ele>
        <time>2022-11-27T13:20:21.274Z</time>
      </trkpt>
      <trkpt lat="48.059245" lon="8.433234">
        <ele>792.204415</ele>
        <time>2022-11-27T13:20:29.276Z</time>
      </trkpt>
      <trkpt lat="48.059204" lon="8.433103">
        <ele>792.297834</ele>
        <time>2022-11-27T13:20:37.258Z</time>
      </trkpt>
      <trkpt lat="48.059150" lon="8.432954">
        <ele>792.407297</ele>
        <time>2022-11-27T13:20:42.281Z</time>
      </trkpt>
      <trkpt lat="48.059098" lon="8.432837">
        <ele>792.498038</ele>
        <time>2022-11-27T13:20:49.262Z</time>
      </trkpt>
      <trkpt lat="48.059045" lon="8.432727">
        <ele>792.585613</ele>
        <time>2022-11-27T13:21:00.280Z</time>
      </trkpt>
      <trkpt lat="48.058998" lon="8.432607">
        <ele>792.675438</ele>
        <time>2022-11-27T13:21:07.265Z</time>
      </trkpt>
      <trkpt lat="48.058939" lon="8.432487">
        <ele>792.771647</ele>
        <time>2022-11-27T13:21:16.277Z</time>
      </trkpt>
      <trkpt lat="48.058899" lon="8.432358">
        <ele>792.863487</ele>
        <time>2022-11-27T13:21:24.276Z</time>
      </trkpt>
      <trkpt lat="48.058825" lon="8.432248">
        <ele>792.964281</ele>
        <time>2022-11-27T13:21:30.287Z</time>
      </trkpt>
      <trkpt lat="48.058753" lon="8.432161">
        <ele>793.053707</ele>
        <time>2022-11-27T13:21:36.285Z</time>
      </trkpt>
      <trkpt lat="48.058666" lon="8.432089">
        <ele>793.149776</ele>
        <time>2022-11-27T13:21:44.290Z</time>
      </trkpt>
      <trkpt lat="48.058601" lon="8.431985">
        <ele>793.241732</ele>
        <time>2022-11-27T13:21:56.283Z</time>
      </trkpt>
      <trkpt lat="48.058646" lon="8.431864">
        <ele>793.331160</ele>
        <time>2022-11-27T13:22:07.283Z</time>
      </trkpt>
      <trkpt lat="48.058668" lon="8.431707">
        <ele>793.434759</ele>
        <time>2022-11-27T13:22:15.253Z</time>
      </trkpt>
      <trkpt lat="48.058676" lon="8.431567">
        <ele>793.525504</ele>
        <time>2022-11-27T13:22:23.290Z</time>
      </trkpt>
      <trkpt lat="48.058635" lon="8.431439">
        <ele>793.655075</ele>
        <time>2022-11-27T13:22:32.280Z</time>
      </trkpt>
      <trkpt lat="48.058536" lon="8.431445">
        <ele>793.806334</ele>
        <time>2022-11-27T13:22:42.284Z</time>
      </trkpt>
      <trkpt lat="48.058447" lon="8.431395">
        <ele>793.951467</ele>
        <time>2022-11-27T13:22:49.267Z</time>
      </trkpt>
      <trkpt lat="48.058348" lon="8.431382">
        <ele>794.103184</ele>
        <time>2022-11-27T13:22:56.273Z</time>
      </trkpt>
      <trkpt lat="48.058248" lon="8.431365">
        <ele>794.256828</ele>
        <time>2022-11-27T13:23:04.279Z</time>
      </trkpt>
      <trkpt lat="48.058144" lon="8.431390">
        <ele>794.417634</ele>
        <time>2022-11-27T13:23:12.284Z</time>
      </trkpt>
      <trkpt lat="48.058054" lon="8.431385">
        <ele>794.555124</ele>
        <time>2022-11-27T13:23:18.279Z</time>
      </trkpt>
      <trkpt lat="48.057960" lon="8.431407">
        <ele>794.700372</ele>
        <time>2022-11-27T13:23:25.284Z</time>
      </trkpt>
      <trkpt lat="48.057867" lon="8.431435">
        <ele>794.845195</ele>
        <time>2022-11-27T13:23:34.272Z</time>
      </trkpt>
      <trkpt lat="48.057768" lon="8.431456">
        <ele>794.997842</ele>
        <time>2022-11-27T13:23:42.273Z</time>
      </trkpt>
      <trkpt lat="48.057662" lon="8.431452">
        <ele>795.159716</ele>
        <time>2022-11-27T13:23:53.275Z</time>
      </trkpt>
      <trkpt lat="48.057567" lon="8.431474">
        <ele>795.306472</ele>
        <time>2022-11-27T13:24:00.249Z</time>
      </trkpt>
      <trkpt lat="48.057477" lon="8.431531">
        <ele>795.455671</ele>
        <time>2022-11-27T13:24:06.278Z</time>
      </trkpt>
      <trkpt lat="48.057385" lon="8.431525">
        <ele>795.596254</ele>
        <time>2022-11-27T13:24:14.275Z</time>
      </trkpt>
      <trkpt lat="48.057358" lon="8.431669">
        <ele>795.748860</ele>
        <time>2022-11-27T13:24:33.270Z</time>
      </trkpt>
      <trkpt lat="48.057359" lon="8.431807">
        <ele>795.889680</ele>
        <time>2022-11-27T13:24:39.277Z</time>
      </trkpt>
      <trkpt lat="48.057367" lon="8.431941">
        <ele>796.026955</ele>
        <time>2022-11-27T13:24:46.273Z</time>
      </trkpt>
      <trkpt lat="48.057394" lon="8.432075">
        <ele>796.169763</ele>
        <time>2022-11-27T13:24:56.243Z</time>
      </trkpt>
      <trkpt lat="48.057401" lon="8.432234">
        <ele>796.321374</ele>
        <time>2022-11-27T13:25:03.260Z</time>
      </trkpt>
      <trkpt lat="48.057400" lon="8.432379">
        <ele>796.422499</ele>
        <time>2022-11-27T13:25:10.264Z</time>
      </trkpt>
      <trkpt lat="48.057334" lon="8.432489">
        <ele>796.525585</ele>
        <time>2022-11-27T13:25:23.263Z</time>
      </trkpt>
      <trkpt lat="48.057267" lon="8.432580">
        <ele>796.620000</ele>
        <time>2022-11-27T13:25:32.264Z</time>
      </trkpt>
      <trkpt lat="48.057256" lon="8.432716">
        <ele>796.715535</ele>
        <time>2022-11-27T13:25:38.269Z</time>
      </trkpt>
      <trkpt lat="48.057279" lon="8.432854">
        <ele>796.814720</ele>
        <time>2022-11-27T13:25:44.264Z</time>
      </trkpt>
      <trkpt lat="48.057303" lon="8.432990">
        <ele>796.912814</ele>
        <time>2022-11-27T13:25:51.261Z</time>
      </trkpt>
      <trkpt lat="48.057326" lon="8.433124">
        <ele>797.009294</ele>
        <time>2022-11-27T13:25:59.261Z</time>
      </trkpt>
      <trkpt lat="48.057360" lon="8.433251">
        <ele>797.104702</ele>
        <time>2022-11-27T13:26:06.259Z</time>
      </trkpt>
      <trkpt lat="48.057346" lon="8.433388">
        <ele>797.201352</ele>
        <time>2022-11-27T13:26:14.276Z</time>
      </trkpt>
      <trkpt lat="48.057374" lon="8.433529">
        <ele>797.303931</ele>
        <time>2022-11-27T13:26:20.281Z</time>
      </trkpt>
      <trkpt lat="48.057424" lon="8.433664">
        <ele>797.411564</ele>
        <time>2022-11-27T13:26:28.263Z</time>
      </trkpt>
      <trkpt lat="48.057471" lon="8.433780">
        <ele>797.506163</ele>
        <time>2022-11-27T13:26:35.261Z</time>
      </trkpt>
      <trkpt lat="48.057510" lon="8.433903">
        <ele>797.601102</ele>
        <time>2022-11-27T13:26:44.274Z</time>
      </trkpt>
      <trkpt lat="48.057561" lon="8.434017">
        <ele>797.696768</ele>
        <time>2022-11-27T13:26:52.259Z</time>
      </trkpt>
      <trkpt lat="48.057627" lon="8.434116">
        <ele>797.794280</ele>
        <time>2022-11-27T13:26:59.274Z</time>
      </trkpt>
      <trkpt lat="48.057651" lon="8.434257">
        <ele>797.895748</ele>
        <time>2022-11-27T13:27:07.265Z</time>
      </trkpt>
      <trkpt lat="48.057699" lon="8.434390">
        <ele>798.001156</ele>
        <time>2022-11-27T13:27:15.268Z</time>
      </trkpt>
      <trkpt lat="48.057741" lon="8.434532">
        <ele>798.109445</ele>
        <time>2022-11-27T13:27:23.280Z</time>
      </trkpt>
      <trkpt lat="48.057799" lon="8.434641">
        <ele>798.131143</ele>
        <time>2022-11-27T13:27:29.276Z</time>
      </trkpt>
      <trkpt lat="48.057830" lon="8.434768">
        <ele>798.005019</ele>
        <time>2022-11-27T13:27:39.269Z</time>
      </trkpt>
      <trkpt lat="48.057869" lon="8.434912">
        <ele>797.860081</ele>
        <time>2022-11-27T13:27:50.261Z</time>
      </trkpt>
      <trkpt lat="48.057915" lon="8.435036">
        <ele>797.727788</ele>
        <time>2022-11-27T13:27:58.249Z</time>
      </trkpt>
      <trkpt lat="48.057958" lon="8.435173">
        <ele>797.586599</ele>
        <time>2022-11-27T13:28:07.275Z</time>
      </trkpt>
      <trkpt lat="48.057975" lon="8.435325">
        <ele>797.442837</ele>
        <time>2022-11-27T13:28:18.274Z</time>
      </trkpt>
      <trkpt lat="48.058007" lon="8.435471">
        <ele>797.299507</ele>
        <time>2022-11-27T13:28:25.269Z</time>
      </trkpt>
      <trkpt lat="48.058048" lon="8.435614">
        <ele>797.154357</ele>
        <time>2022-11-27T13:28:34.277Z</time>
      </trkpt>
      <trkpt lat="48.058080" lon="8.435752">
        <ele>797.018098</ele>
        <time>2022-11-27T13:28:44.270Z</time>
      </trkpt>
      <trkpt lat="48.058121" lon="8.435875">
        <ele>796.889883</ele>
        <time>2022-11-27T13:28:53.251Z</time>
      </trkpt>
      <trkpt lat="48.058166" lon="8.436017">
        <ele>796.743286</ele>
        <time>2022-11-27T13:29:00.250Z</time>
      </trkpt>
      <trkpt lat="48.058200" lon="8.436144">
        <ele>796.615666</ele>
        <time>2022-11-27T13:29:08.276Z</time>
      </trkpt>
      <trkpt lat="48.058253" lon="8.436255">
        <ele>796.488414</ele>
        <time>2022-11-27T13:29:15.297Z</time>
      </trkpt>
      <trkpt lat="48.058302" lon="8.436375">
        <ele>796.357237</ele>
        <time>2022-11-27T13:29:23.268Z</time>
      </trkpt>
      <trkpt lat="48.058336" lon="8.436517">
        <ele>796.216532</ele>
        <time>2022-11-27T13:29:31.268Z</time>
      </trkpt>
      <trkpt lat="48.058349" lon="8.436660">
        <ele>796.081910</ele>
        <time>2022-11-27T13:29:38.263Z</time>
      </trkpt>
      <trkpt lat="48.058357" lon="8.436797">
        <ele>795.953625</ele>
        <time>2022-11-27T13:29:45.265Z</time>
      </trkpt>
      <trkpt lat="48.058355" lon="8.436944">
        <ele>795.816471</ele>
        <time>2022-11-27T13:29:51.274Z</time>
      </trkpt>
      <trkpt lat="48.058348" lon="8.437087">
        <ele>795.682720</ele>
        <time>2022-11-27T13:30:01.278Z</time>
      </trkpt>
      <trkpt lat="48.058344" lon="8.437227">
        <ele>795.572123</ele>
        <time>2022-11-27T13:30:07.278Z</time>
      </trkpt>
      <trkpt lat="48.058342" lon="8.437379">
        <ele>795.455778</ele>
        <time>2022-11-27T13:30:13.260Z</time>
      </trkpt>
      <trkpt lat="48.058354" lon="8.437524">
        <ele>795.343965</ele>
        <time>2022-11-27T13:30:21.265Z</time>
      </trkpt>
      <trkpt lat="48.058340" lon="8.437664">
        <ele>795.235633</ele>
        <time>2022-11-27T13:30:29.271Z</time>
      </trkpt>
      <trkpt lat="48.058343" lon="8.437799">
        <ele>795.132263</ele>
        <time>2022-11-27T13:30:38.263Z</time>
      </trkpt>
      <trkpt lat="48.058347" lon="8.437944">
        <ele>795.021203</ele>
        <time>2022-11-27T13:30:46.250Z</time>
      </trkpt>
      <trkpt lat="48.058383" lon="8.438071">
        <ele>794.915633</ele>
        <time>2022-11-27T13:30:57.279Z</time>
      </trkpt>
      <trkpt lat="48.058338" lon="8.438202">
        <ele>794.802916</ele>
        <time>2022-11-27T13:31:06.260Z</time>
      </trkpt>
      <trkpt lat="48.058314" lon="8.438359">
        <ele>794.679664</ele>
        <time>2022-11-27T13:31:11.263Z</time>
      </trkpt>
      <trkpt lat="48.058277" lon="8.438484">
        <ele>794.575043</ele>
        <time>2022-11-27T13:31:17.274Z</time>
      </trkpt>
      <trkpt lat="48.058250" lon="8.438625">
        <ele>794.462797</ele>
        <time>2022-11-27T13:31:26.271Z</time>
      </trkpt>
      <trkpt lat="48.058236" lon="8.438769">
        <ele>794.351437</ele>
        <time>2022-11-27T13:31:34.280Z</time>
      </trkpt>
      <trkpt lat="48.058250" lon="8.438910">
        <ele>794.242348</ele>
        <time>2022-11-27T13:31:41.282Z</time>
      </trkpt>
      <trkpt lat="48.058206" lon="8.439047">
        <ele>794.126029</ele>
        <time>2022-11-27T13:31:48.272Z</time>
      </trkpt>
      <trkpt lat="48.058180" lon="8.439183">
        <ele>794.017776</ele>
        <time>2022-11-27T13:31:56.259Z</time>
      </trkpt>
      <trkpt lat="48.058183" lon="8.439324">
        <ele>793.909817</ele>
        <time>2022-11-27T13:32:08.271Z</time>
      </trkpt>
      <trkpt lat="48.058306" lon="8.439426">
        <ele>793.748798</ele>
        <time>2022-11-27T13:32:36.276Z</time>
      </trkpt>
      <trkpt lat="48.058396" lon="8.439432">
        <ele>793.645646</ele>
        <time>2022-11-27T13:32:43.271Z</time>
      </trkpt>
      <trkpt lat="48.058486" lon="8.439484">
        <ele>793.537949</ele>
        <time>2022-11-27T13:32:55.291Z</time>
      </trkpt>
      <trkpt lat="48.058468" lon="8.439628">
        <ele>793.430309</ele>
        <time>2022-11-27T13:33:13.278Z</time>
      </trkpt>
      <trkpt lat="48.058442" lon="8.439757">
        <ele>793.331310</ele>
        <time>2022-11-27T13:33:23.280Z</time>
      </trkpt>
      <trkpt lat="48.058409" lon="8.439885">
        <ele>793.230507</ele>
        <time>2022-11-27T13:33:32.255Z</time>
      </trkpt>
      <trkpt lat="48.058352" lon="8.440022">
        <ele>793.111935</ele>
        <time>2022-11-27T13:33:40.268Z</time>
      </trkpt>
      <trkpt lat="48.058306" lon="8.440141">
        <ele>793.010929</ele>
        <time>2022-11-27T13:33:54.273Z</time>
      </trkpt>
      <trkpt lat="48.058229" lon="8.440261">
        <ele>792.888702</ele>
        <time>2022-11-27T13:33:59.278Z</time>
      </trkpt>
      <trkpt lat="48.058195" lon="8.440388">
        <ele>792.788180</ele>
        <time>2022-11-27T13:34:04.275Z</time>
      </trkpt>
      <trkpt lat="48.058251" lon="8.440496">
        <ele>792.687746</ele>
        <time>2022-11-27T13:34:10.266Z</time>
      </trkpt>
      <trkpt lat="48.058202" lon="8.440618">
        <ele>792.583166</ele>
        <time>2022-11-27T13:34:17.273Z</time>
      </trkpt>
      <trkpt lat="48.058177" lon="8.440756">
        <ele>792.478110</ele>
        <time>2022-11-27T13:34:23.281Z</time>
      </trkpt>
      <trkpt lat="48.058136" lon="8.440891">
        <ele>792.369157</ele>
        <time>2022-11-27T13:34:29.299Z</time>
      </trkpt>
      <trkpt lat="48.058130" lon="8.441028">
        <ele>792.268279</ele>
        <time>2022-11-27T13:34:37.266Z</time>
      </trkpt>
      <trkpt lat="48.058128" lon="8.441185">
        <ele>792.152901</ele>
        <time>2022-11-27T13:34:45.316Z</time>
      </trkpt>
      <trkpt lat="48.058099" lon="8.441327">
        <ele>792.043803</ele>
        <time>2022-11-27T13:34:52.266Z</time>
      </trkpt>
      <trkpt lat="48.058070" lon="8.441460">
        <ele>791.941011</ele>
        <time>2022-11-27T13:34:59.277Z</time>
      </trkpt>
      <trkpt lat="48.058061" lon="8.441616">
        <ele>791.825962</ele>
        <time>2022-11-27T13:35:07.277Z</time>
      </trkpt>
      <trkpt lat="48.058085" lon="8.441763">
        <ele>791.714776</ele>
        <time>2022-11-27T13:35:11.264Z</time>
      </trkpt>
      <trkpt lat="48.058100" lon="8.441904">
        <ele>791.618006</ele>
        <time>2022-11-27T13:35:17.254Z</time>
      </trkpt>
      <trkpt lat="48.058118" lon="8.442045">
        <ele>791.561765</ele>
        <time>2022-11-27T13:35:24.276Z</time>
      </trkpt>
      <trkpt lat="48.058120" lon="8.442186">
        <ele>791.506511</ele>
        <time>2022-11-27T13:35:32.272Z</time>
      </trkpt>
      <trkpt lat="48.058157" lon="8.442333">
        <ele>791.444971</ele>
        <time>2022-11-27T13:35:40.290Z</time>
      </trkpt>
      <trkpt lat="48.058203" lon="8.442454">
        <ele>791.390433</ele>
        <time>2022-11-27T13:35:47.289Z</time>
      </trkpt>
      <trkpt lat="48.058224" lon="8.442599">
        <ele>791.332306</ele>
        <time>2022-11-27T13:35:56.278Z</time>
      </trkpt>
      <trkpt lat="48.058197" lon="8.442742">
        <ele>791.274088</ele>
        <time>2022-11-27T13:36:08.291Z</time>
      </trkpt>
      <trkpt lat="48.058189" lon="8.442877">
        <ele>791.220989</ele>
        <time>2022-11-27T13:36:17.289Z</time>
      </trkpt>
      <trkpt lat="48.058182" lon="8.443031">
        <ele>791.160515</ele>
        <time>2022-11-27T13:36:22.295Z</time>
      </trkpt>
      <trkpt lat="48.058167" lon="8.443168">
        <ele>791.106125</ele>
        <time>2022-11-27T13:36:28.287Z</time>
      </trkpt>
      <trkpt lat="48.058173" lon="8.443310">
        <ele>791.050381</ele>
        <time>2022-11-27T13:36:38.282Z</time>
      </trkpt>
      <trkpt lat="48.058180" lon="8.443456">
        <ele>790.993033</ele>
        <time>2022-11-27T13:36:45.281Z</time>
      </trkpt>
      <trkpt lat="48.058177" lon="8.443596">
        <ele>790.938155</ele>
        <time>2022-11-27T13:36:54.274Z</time>
      </trkpt>
      <trkpt lat="48.058180" lon="8.443747">
        <ele>790.878970</ele>
        <time>2022-11-27T13:37:04.265Z</time>
      </trkpt>
      <trkpt lat="48.058186" lon="8.443886">
        <ele>790.824398</ele>
        <time>2022-11-27T13:37:11.275Z</time>
      </trkpt>
      <trkpt lat="48.058197" lon="8.444037">
        <ele>790.764888</ele>
        <time>2022-11-27T13:37:21.275Z</time>
      </trkpt>
      <trkpt lat="48.058228" lon="8.444177">
        <ele>790.707107</ele>
        <time>2022-11-27T13:37:30.276Z</time>
      </trkpt>
      <trkpt lat="48.058251" lon="8.444309">
        <ele>790.653663</ele>
        <time>2022-11-27T13:37:38.298Z</time>
      </trkpt>
      <trkpt lat="48.058283" lon="8.444455">
        <ele>790.593465</ele>
        <time>2022-11-27T13:37:46.284Z</time>
      </trkpt>
      <trkpt lat="48.058356" lon="8.444540">
        <ele>790.548580</ele>
        <time>2022-11-27T13:37:52.273Z</time>
      </trkpt>
      <trkpt lat="48.058375" lon="8.444682">
        <ele>790.507544</ele>
        <time>2022-11-27T13:38:06.293Z</time>
      </trkpt>
      <trkpt lat="48.058401" lon="8.444822">
        <ele>790.466371</ele>
        <time>2022-11-27T13:38:14.283Z</time>
      </trkpt>
      <trkpt lat="48.058438" lon="8.444963">
        <ele>790.423449</ele>
        <time>2022-11-27T13:38:21.268Z</time>
      </trkpt>
      <trkpt lat="48.058356" lon="8.445091">
        <ele>790.373208</ele>
        <time>2022-11-27T13:39:01.288Z</time>
      </trkpt>
      <trkpt lat="48.058282" lon="8.445170">
        <ele>790.334668</ele>
        <time>2022-11-27T13:39:11.281Z</time>
      </trkpt>
      <trkpt lat="48.058299" lon="8.445307">
        <ele>790.295185</ele>
        <time>2022-11-27T13:39:16.287Z</time>
      </trkpt>
      <trkpt lat="48.058350" lon="8.445420">
        <ele>790.256548</ele>
        <time>2022-11-27T13:39:22.288Z</time>
      </trkpt>
      <trkpt lat="48.058355" lon="8.445565">
        <ele>790.215407</ele>
        <time>2022-11-27T13:39:33.277Z</time>
      </trkpt>
      <trkpt lat="48.058379" lon="8.445701">
        <ele>790.175549</ele>
        <time>2022-11-27T13:39:43.273Z</time>
      </trkpt>
      <trkpt lat="48.058420" lon="8.445850">
        <ele>790.129890</ele>
        <time>2022-11-27T13:39:50.273Z</time>
      </trkpt>
      <trkpt lat="48.058470" lon="8.445972">
        <ele>790.089339</ele>
        <time>2022-11-27T13:39:56.283Z</time>
      </trkpt>
      <trkpt lat="48.058511" lon="8.446103">
        <ele>790.048351</ele>
        <time>2022-11-27T13:40:02.269Z</time>
      </trkpt>
      <trkpt lat="48.058543" lon="8.446246">
        <ele>790.005620</ele>
        <time>2022-11-27T13:40:10.248Z</time>
      </trkpt>
      <trkpt lat="48.058577" lon="8.446378">
        <ele>789.965535</ele>
        <time>2022-11-27T13:40:19.285Z</time>
      </trkpt>
      <trkpt lat="48.058626" lon="8.446492">
        <ele>789.927129</ele>
        <time>2022-11-27T13:40:26.269Z</time>
      </trkpt>
      <trkpt lat="48.058658" lon="8.446634">
        <ele>789.884666</ele>
        <time>2022-11-27T13:40:34.271Z</time>
      </trkpt>
      <trkpt lat="48.058656" lon="8.446778">
        <ele>789.843854</ele>
        <time>2022-11-27T13:40:40.273Z</time>
      </trkpt>
      <trkpt lat="48.058671" lon="8.446920">
        <ele>789.793843</ele>
        <time>2022-11-27T13:40:52.276Z</time>
      </trkpt>
      <trkpt lat="48.058717" lon="8.447056">
        <ele>789.695933</ele>
        <time>2022-11-27T13:41:00.248Z</time>
      </trkpt>
      <trkpt lat="48.058732" lon="8.447193">
        <ele>789.606756</ele>
        <time>2022-11-27T13:41:07.279Z</time>
      </trkpt>
      <trkpt lat="48.058798" lon="8.447284">
        <ele>789.520498</ele>
        <time>2022-11-27T13:41:15.261Z</time>
      </trkpt>
      <trkpt lat="48.058797" lon="8.447423">
        <ele>789.431205</ele>
        <time>2022-11-27T13:41:22.268Z</time>
      </trkpt>
      <trkpt lat="48.058768" lon="8.447555">
        <ele>789.341950</ele>
        <time>2022-11-27T13:41:31.304Z</time>
      </trkpt>
      <trkpt lat="48.058753" lon="8.447701">
        <ele>789.247064</ele>
        <time>2022-11-27T13:41:37.273Z</time>
      </trkpt>
      <trkpt lat="48.058745" lon="8.447846">
        <ele>789.153606</ele>
        <time>2022-11-27T13:41:43.261Z</time>
      </trkpt>
      <trkpt lat="48.058722" lon="8.447978">
        <ele>789.065980</ele>
        <time>2022-11-27T13:41:57.269Z</time>
      </trkpt>
      <trkpt lat="48.058655" lon="8.448074">
        <ele>788.976822</ele>
        <time>2022-11-27T13:42:09.285Z</time>
      </trkpt>
      <trkpt lat="48.058628" lon="8.448208">
        <ele>788.886919</ele>
        <time>2022-11-27T13:42:13.272Z</time>
      </trkpt>
      <trkpt lat="48.058576" lon="8.448350">
        <ele>788.782910</ele>
        <time>2022-11-27T13:42:17.276Z</time>
      </trkpt>
      <trkpt lat="48.058574" lon="8.448487">
        <ele>788.694886</ele>
        <time>2022-11-27T13:42:21.268Z</time>
      </trkpt>
      <trkpt lat="48.058551" lon="8.448626">
        <ele>788.602902</ele>
        <time>2022-11-27T13:42:29.259Z</time>
      </trkpt>
      <trkpt lat="48.058557" lon="8.448778">
        <ele>788.505093</ele>
        <time>2022-11-27T13:42:34.272Z</time>
      </trkpt>
      <trkpt lat="48.058558" lon="8.448913">
        <ele>788.418369</ele>
        <time>2022-11-27T13:42:41.263Z</time>
      </trkpt>
      <trkpt lat="48.058548" lon="8.449050">
        <ele>788.329842</ele>
        <time>2022-11-27T13:42:49.271Z</time>
      </trkpt>
      <trkpt lat="48.058562" lon="8.449201">
        <ele>788.231917</ele>
        <time>2022-11-27T13:42:59.279Z</time>
      </trkpt>
      <trkpt lat="48.058571" lon="8.449336">
        <ele>788.144768</ele>
        <time>2022-11-27T13:43:06.257Z</time>
      </trkpt>
      <trkpt lat="48.058580" lon="8.449483">
        <ele>788.038691</ele>
        <time>2022-11-27T13:43:14.257Z</time>
      </trkpt>
      <trkpt lat="48.058595" lon="8.449626">
        <ele>787.912847</ele>
        <time>2022-11-27T13:43:19.275Z</time>
      </trkpt>
      <trkpt lat="48.058587" lon="8.449763">
        <ele>787.793287</ele>
        <time>2022-11-27T13:43:27.270Z</time>
      </trkpt>
      <trkpt lat="48.058580" lon="8.449925">
        <ele>787.652152</ele>
        <time>2022-11-27T13:43:33.266Z</time>
      </trkpt>
      <trkpt lat="48.058584" lon="8.450067">
        <ele>787.528589</ele>
        <time>2022-11-27T13:43:40.265Z</time>
      </trkpt>
      <trkpt lat="48.058594" lon="8.450214">
        <ele>787.400128</ele>
        <time>2022-11-27T13:43:48.261Z</time>
      </trkpt>
      <trkpt lat="48.058582" lon="8.450350">
        <ele>787.280865</ele>
        <time>2022-11-27T13:43:59.267Z</time>
      </trkpt>
      <trkpt lat="48.058621" lon="8.450495">
        <ele>787.144979</ele>
        <time>2022-11-27T13:44:07.263Z</time>
      </trkpt>
      <trkpt lat="48.058638" lon="8.450634">
        <ele>787.022128</ele>
        <time>2022-11-27T13:44:17.271Z</time>
      </trkpt>
      <trkpt lat="48.058629" lon="8.450779">
        <ele>786.895524</ele>
        <time>2022-11-27T13:44:25.274Z</time>
      </trkpt>
      <trkpt lat="48.058625" lon="8.450915">
        <ele>786.777173</ele>
        <time>2022-11-27T13:44:31.269Z</time>
      </trkpt>
      <trkpt lat="48.058617" lon="8.451055">
        <ele>786.655014</ele>
        <time>2022-11-27T13:44:39.274Z</time>
      </trkpt>
      <trkpt lat="48.058596" lon="8.451190">
        <ele>786.534510</ele>
        <time>2022-11-27T13:44:44.265Z</time>
      </trkpt>
      <trkpt lat="48.058578" lon="8.451328">
        <ele>786.412271</ele>
        <time>2022-11-27T13:44:50.288Z</time>
      </trkpt>
      <trkpt lat="48.058576" lon="8.451487">
        <ele>786.274014</ele>
        <time>2022-11-27T13:44:58.290Z</time>
      </trkpt>
      <trkpt lat="48.058577" lon="8.451633">
        <ele>786.147076</ele>
        <time>2022-11-27T13:45:06.257Z</time>
      </trkpt>
      <trkpt lat="48.058588" lon="8.451773">
        <ele>786.024524</ele>
        <time>2022-11-27T13:45:14.273Z</time>
      </trkpt>
      <trkpt lat="48.058624" lon="8.451913">
        <ele>785.894112</ele>
        <time>2022-11-27T13:45:23.272Z</time>
      </trkpt>
      <trkpt lat="48.058660" lon="8.452057">
        <ele>785.760449</ele>
        <time>2022-11-27T13:45:31.271Z</time>
      </trkpt>
      <trkpt lat="48.058677" lon="8.452196">
        <ele>785.629800</ele>
        <time>2022-11-27T13:45:37.272Z</time>
      </trkpt>
      <trkpt lat="48.058696" lon="8.452330">
        <ele>785.501830</ele>
        <time>2022-11-27T13:45:45.276Z</time>
      </trkpt>
      <trkpt lat="48.058716" lon="8.452478">
        <ele>785.360770</ele>
        <time>2022-11-27T13:45:51.280Z</time>
      </trkpt>
      <trkpt lat="48.058642" lon="8.452567">
        <ele>785.228062</ele>
        <time>2022-11-27T13:45:59.267Z</time>
      </trkpt>
      <trkpt lat="48.058593" lon="8.452690">
        <ele>785.094292</ele>
        <time>2022-11-27T13:46:04.270Z</time>
      </trkpt>
      <trkpt lat="48.058556" lon="8.452818">
        <ele>784.964009</ele>
        <time>2022-11-27T13:46:11.291Z</time>
      </trkpt>
      <trkpt lat="48.058492" lon="8.452934">
        <ele>784.823489</ele>
        <time>2022-11-27T13:46:23.264Z</time>
      </trkpt>
      <trkpt lat="48.058413" lon="8.453025">
        <ele>784.684132</ele>
        <time>2022-11-27T13:46:32.278Z</time>
      </trkpt>
      <trkpt lat="48.058359" lon="8.453160">
        <ele>784.537154</ele>
        <time>2022-11-27T13:46:41.277Z</time>
      </trkpt>
      <trkpt lat="48.058330" lon="8.453306">
        <ele>784.394863</ele>
        <time>2022-11-27T13:46:47.261Z</time>
      </trkpt>
      <trkpt lat="48.058307" lon="8.453447">
        <ele>784.259273</ele>
        <time>2022-11-27T13:46:54.256Z</time>
      </trkpt>
      <trkpt lat="48.058274" lon="8.453578">
        <ele>784.128487</ele>
        <time>2022-11-27T13:47:03.269Z</time>
      </trkpt>
      <trkpt lat="48.058243" lon="8.453724">
        <ele>783.985375</ele>
        <time>2022-11-27T13:47:14.264Z</time>
      </trkpt>
      <trkpt lat="48.058213" lon="8.453883">
        <ele>783.831029</ele>
        <time>2022-11-27T13:47:21.277Z</time>
      </trkpt>
      <trkpt lat="48.058142" lon="8.454001">
        <ele>783.682703</ele>
        <time>2022-11-27T13:47:30.276Z</time>
      </trkpt>
      <trkpt lat="48.058092" lon="8.454131">
        <ele>783.542582</ele>
        <time>2022-11-27T13:47:40.288Z</time>
      </trkpt>
      <trkpt lat="48.058062" lon="8.454271">
        <ele>783.405234</ele>
        <time>2022-11-27T13:47:48.270Z</time>
      </trkpt>
      <trkpt lat="48.058044" lon="8.454414">
        <ele>783.269292</ele>
        <time>2022-11-27T13:47:55.270Z</time>
      </trkpt>
      <trkpt lat="48.058022" lon="8.454549">
        <ele>783.137975</ele>
        <time>2022-11-27T13:48:01.271Z</time>
      </trkpt>
      <trkpt lat="48.057994" lon="8.454687">
        <ele>783.000959</ele>
        <time>2022-11-27T13:48:09.275Z</time>
      </trkpt>
      <trkpt lat="48.057933" lon="8.454809">
        <ele>782.856209</ele>
        <time>2022-11-27T13:48:17.278Z</time>
      </trkpt>
      <trkpt lat="48.057857" lon="8.454903">
        <ele>782.716046</ele>
        <time>2022-11-27T13:48:23.262Z</time>
      </trkpt>
      <trkpt lat="48.057779" lon="8.454983">
        <ele>782.581624</ele>
        <time>2022-11-27T13:48:32.278Z</time>
      </trkpt>
      <trkpt lat="48.057725" lon="8.455094">
        <ele>782.451190</ele>
        <time>2022-11-27T13:48:37.281Z</time>
      </trkpt>
      <trkpt lat="48.057672" lon="8.455206">
        <ele>782.320814</ele>
        <time>2022-11-27T13:48:43.274Z</time>
      </trkpt>
      <trkpt lat="48.057615" lon="8.455329">
        <ele>782.178616</ele>
        <time>2022-11-27T13:48:50.277Z</time>
      </trkpt>
      <trkpt lat="48.057544" lon="8.455435">
        <ele>782.036043</ele>
        <time>2022-11-27T13:48:59.269Z</time>
      </trkpt>
      <trkpt lat="48.057472" lon="8.455518">
        <ele>781.906844</ele>
        <time>2022-11-27T13:49:06.269Z</time>
      </trkpt>
      <trkpt lat="48.057381" lon="8.455593">
        <ele>781.759166</ele>
        <time>2022-11-27T13:49:14.271Z</time>
      </trkpt>
      <trkpt lat="48.057351" lon="8.455735">
        <ele>781.617677</ele>
        <time>2022-11-27T13:49:27.275Z</time>
      </trkpt>
      <trkpt lat="48.057317" lon="8.455876">
        <ele>781.475266</ele>
        <time>2022-11-27T13:49:35.249Z</time>
      </trkpt>
      <trkpt lat="48.057252" lon="8.456000">
        <ele>781.325548</ele>
        <time>2022-11-27T13:49:45.269Z</time>
      </trkpt>
      <trkpt lat="48.057170" lon="8.456084">
        <ele>781.184287</ele>
        <time>2022-11-27T13:49:53.286Z</time>
      </trkpt>
      <trkpt lat="48.057087" lon="8.456156">
        <ele>781.047911</ele>
        <time>2022-11-27T13:49:59.279Z</time>
      </trkpt>
      <trkpt lat="48.057014" lon="8.456244">
        <ele>780.914655</ele>
        <time>2022-11-27T13:50:05.262Z</time>
      </trkpt>
      <trkpt lat="48.056944" lon="8.456336">
        <ele>780.782215</ele>
        <time>2022-11-27T13:50:13.265Z</time>
      </trkpt>
      <trkpt lat="48.056869" lon="8.456423">
        <ele>780.633004</ele>
        <time>2022-11-27T13:50:19.288Z</time>
      </trkpt>
      <trkpt lat="48.056781" lon="8.456448">
        <ele>780.430300</ele>
        <time>2022-11-27T13:50:27.275Z</time>
      </trkpt>
      <trkpt lat="48.056707" lon="8.456532">
        <ele>780.220092</ele>
        <time>2022-11-27T13:50:41.271Z</time>
      </trkpt>
      <trkpt lat="48.056653" lon="8.456658">
        <ele>779.993692</ele>
        <time>2022-11-27T13:50:54.301Z</time>
      </trkpt>
      <trkpt lat="48.056571" lon="8.456772">
        <ele>779.740376</ele>
        <time>2022-11-27T13:51:06.292Z</time>
      </trkpt>
      <trkpt lat="48.056500" lon="8.456859">
        <ele>779.532690</ele>
        <time>2022-11-27T13:51:10.278Z</time>
      </trkpt>
      <trkpt lat="48.056404" lon="8.456850">
        <ele>779.315014</ele>
        <time>2022-11-27T13:51:17.292Z</time>
      </trkpt>
      <trkpt lat="48.056312" lon="8.456815">
        <ele>779.100191</ele>
        <time>2022-11-27T13:51:23.285Z</time>
      </trkpt>
      <trkpt lat="48.056267" lon="8.456944">
        <ele>778.880090</ele>
        <time>2022-11-27T13:51:36.274Z</time>
      </trkpt>
      <trkpt lat="48.056274" lon="8.457090">
        <ele>778.658682</ele>
        <time>2022-11-27T13:51:43.304Z</time>
      </trkpt>
      <trkpt lat="48.056327" lon="8.457223">
        <ele>778.424466</ele>
        <time>2022-11-27T13:51:49.274Z</time>
      </trkpt>
      <trkpt lat="48.056425" lon="8.457255">
        <ele>778.197470</ele>
        <time>2022-11-27T13:51:55.273Z</time>
      </trkpt>
      <trkpt lat="48.056670" lon="8.457572">
        <ele>777.464452</ele>
        <time>2022-11-27T13:52:51.271Z</time>
      </trkpt>
      <trkpt lat="48.056610" lon="8.457472">
        <ele>777.261189</ele>
        <time>2022-11-27T13:52:57.291Z</time>
      </trkpt>
      <trkpt lat="48.056767" lon="8.457392">
        <ele>776.885854</ele>
        <time>2022-11-27T13:54:13.270Z</time>
      </trkpt>
      <trkpt lat="48.056863" lon="8.457436">
        <ele>776.658639</ele>
        <time>2022-11-27T13:54:24.269Z</time>
      </trkpt>
      <trkpt lat="48.056951" lon="8.457480">
        <ele>776.380447</ele>
        <time>2022-11-27T13:54:32.267Z</time>
      </trkpt>
      <trkpt lat="48.057042" lon="8.457482">
        <ele>776.082337</ele>
        <time>2022-11-27T13:54:41.257Z</time>
      </trkpt>
      <trkpt lat="48.057048" lon="8.457622">
        <ele>775.775197</ele>
        <time>2022-11-27T13:54:51.265Z</time>
      </trkpt>
      <trkpt lat="48.057091" lon="8.457771">
        <ele>775.419874</ele>
        <time>2022-11-27T13:54:59.253Z</time>
      </trkpt>
      <trkpt lat="48.057226" lon="8.457936">
        <ele>774.848875</ele>
        <time>2022-11-27T13:55:15.266Z</time>
      </trkpt>
      <trkpt lat="48.057315" lon="8.458038">
        <ele>774.481647</ele>
        <time>2022-11-27T13:55:28.248Z</time>
      </trkpt>
      <trkpt lat="48.057346" lon="8.458179">
        <ele>774.156677</ele>
        <time>2022-11-27T13:55:42.277Z</time>
      </trkpt>
      <trkpt lat="48.057409" lon="8.458449">
        <ele>773.530568</ele>
        <time>2022-11-27T13:55:51.258Z</time>
      </trkpt>
      <trkpt lat="48.057354" lon="8.458562">
        <ele>773.224527</ele>
        <time>2022-11-27T13:55:56.269Z</time>
      </trkpt>
      <trkpt lat="48.057343" lon="8.458709">
        <ele>772.900682</ele>
        <time>2022-11-27T13:56:02.258Z</time>
      </trkpt>
      <trkpt lat="48.057328" lon="8.458846">
        <ele>772.596743</ele>
        <time>2022-11-27T13:56:11.260Z</time>
      </trkpt>
      <trkpt lat="48.057309" lon="8.458979">
        <ele>772.298983</ele>
        <time>2022-11-27T13:56:20.272Z</time>
      </trkpt>
      <trkpt lat="48.057364" lon="8.459108">
        <ele>771.963990</ele>
        <time>2022-11-27T13:56:27.261Z</time>
      </trkpt>
      <trkpt lat="48.057372" lon="8.459247">
        <ele>771.658544</ele>
        <time>2022-11-27T13:56:32.293Z</time>
      </trkpt>
      <trkpt lat="48.057372" lon="8.459427">
        <ele>771.264462</ele>
        <time>2022-11-27T13:56:45.251Z</time>
      </trkpt>
      <trkpt lat="48.057339" lon="8.459567">
        <ele>770.939451</ele>
        <time>2022-11-27T13:56:58.246Z</time>
      </trkpt>
      <trkpt lat="48.057370" lon="8.459878">
        <ele>770.170394</ele>
        <time>2022-11-27T13:58:18.250Z</time>
      </trkpt>
      <trkpt lat="48.057375" lon="8.460021">
        <ele>769.801753</ele>
        <time>2022-11-27T13:58:25.253Z</time>
      </trkpt>
      <trkpt lat="48.057374" lon="8.460172">
        <ele>769.413001</ele>
        <time>2022-11-27T13:58:32.275Z</time>
      </trkpt>
      <trkpt lat="48.057359" lon="8.460306">
        <ele>769.063228</ele>
        <time>2022-11-27T13:58:47.269Z</time>
      </trkpt>
      <trkpt lat="48.057408" lon="8.460422">
        <ele>768.709959</ele>
        <time>2022-11-27T13:58:55.273Z</time>
      </trkpt>
      <trkpt lat="48.057487" lon="8.460544">
        <ele>768.272660</ele>
        <time>2022-11-27T13:59:07.258Z</time>
      </trkpt>
      <trkpt lat="48.057468" lon="8.460703">
        <ele>767.856843</ele>
        <time>2022-11-27T13:59:09.264Z</time>
      </trkpt>
      <trkpt lat="48.057413" lon="8.460888">
        <ele>767.335593</ele>
        <time>2022-11-27T13:59:20.278Z</time>
      </trkpt>
      <trkpt lat="48.057490" lon="8.460974">
        <ele>766.965491</ele>
        <time>2022-11-27T13:59:40.273Z</time>
      </trkpt>
      <trkpt lat="48.057555" lon="8.461149">
        <ele>766.450084</ele>
        <time>2022-11-27T13:59:49.258Z</time>
      </trkpt>
      <trkpt lat="48.057500" lon="8.461290">
        <ele>766.029802</ele>
        <time>2022-11-27T13:59:55.262Z</time>
      </trkpt>
      <trkpt lat="48.057482" lon="8.461429">
        <ele>765.665309</ele>
        <time>2022-11-27T13:59:59.275Z</time>
      </trkpt>
      <trkpt lat="48.057571" lon="8.461454">
        <ele>765.316522</ele>
        <time>2022-11-27T14:00:08.269Z</time>
      </trkpt>
      <trkpt lat="48.057476" lon="8.461428">
        <ele>764.944544</ele>
        <time>2022-11-27T14:00:12.272Z</time>
      </trkpt>
      <trkpt lat="48.057560" lon="8.461599">
        <ele>764.398219</ele>
        <time>2022-11-27T14:00:59.278Z</time>
      </trkpt>
      <trkpt lat="48.057604" lon="8.461727">
        <ele>764.027672</ele>
        <time>2022-11-27T14:01:08.280Z</time>
      </trkpt>
      <trkpt lat="48.057611" lon="8.461877">
        <ele>763.781799</ele>
        <time>2022-11-27T14:01:19.272Z</time>
      </trkpt>
      <trkpt lat="48.057601" lon="8.462322">
        <ele>763.781799</ele>
        <time>2022-11-27T14:02:10.289Z</time>
      </trkpt>
      <trkpt lat="48.057647" lon="8.462448">
        <ele>763.781799</ele>
        <time>2022-11-27T14:02:17.276Z</time>
      </trkpt>
      <trkpt lat="48.057631" lon="8.462587">
        <ele>763.781799</ele>
        <time>2022-11-27T14:02:22.285Z</time>
      </trkpt>
      <trkpt lat="48.057611" lon="8.462740">
        <ele>763.781799</ele>
        <time>2022-11-27T14:02:34.267Z</time>
      </trkpt>
      <trkpt lat="48.057614" lon="8.462883">
        <ele>763.781799</ele>
        <time>2022-11-27T14:02:40.269Z</time>
      </trkpt>
      <trkpt lat="48.057650" lon="8.463021">
        <ele>763.781799</ele>
        <time>2022-11-27T14:02:45.268Z</time>
      </trkpt>
      <trkpt lat="48.057674" lon="8.463161">
        <ele>763.781799</ele>
        <time>2022-11-27T14:03:01.297Z</time>
      </trkpt>
      <trkpt lat="48.057680" lon="8.463306">
        <ele>763.781799</ele>
        <time>2022-11-27T14:03:11.274Z</time>
      </trkpt>
      <trkpt lat="48.057692" lon="8.463445">
        <ele>763.781799</ele>
        <time>2022-11-27T14:03:17.283Z</time>
      </trkpt>
      <trkpt lat="48.057693" lon="8.463584">
        <ele>763.781799</ele>
        <time>2022-11-27T14:03:24.282Z</time>
      </trkpt>
      <trkpt lat="48.057694" lon="8.463722">
        <ele>763.781799</ele>
        <time>2022-11-27T14:03:30.281Z</time>
      </trkpt>
      <trkpt lat="48.057715" lon="8.463871">
        <ele>763.781799</ele>
        <time>2022-11-27T14:03:37.284Z</time>
      </trkpt>
      <trkpt lat="48.057734" lon="8.464013">
        <ele>763.781799</ele>
        <time>2022-11-27T14:03:45.271Z</time>
      </trkpt>
      <trkpt lat="48.057732" lon="8.464159">
        <ele>763.781799</ele>
        <time>2022-11-27T14:03:57.310Z</time>
      </trkpt>
      <trkpt lat="48.057725" lon="8.464308">
        <ele>763.781799</ele>
        <time>2022-11-27T14:04:05.272Z</time>
      </trkpt>
      <trkpt lat="48.057721" lon="8.464449">
        <ele>763.781799</ele>
        <time>2022-11-27T14:04:14.284Z</time>
      </trkpt>
      <trkpt lat="48.057744" lon="8.464591">
        <ele>763.781799</ele>
        <time>2022-11-27T14:04:22.285Z</time>
      </trkpt>
      <trkpt lat="48.057673" lon="8.464667">
        <ele>763.781799</ele>
        <time>2022-11-27T14:04:54.256Z</time>
      </trkpt>
    </trkseg>
  </trk>
</gpx>